<?xml version="1.0" encoding="UTF-8" standalone="no" ?>
<gpx xmlns="http://www.topografix.com/GPX/1/1" xmlns:xsi="http://www.w3.org/2001/XMLSchema-instance" xsi:schemaLocation="http://www.topografix.com/GPX/1/1 http://www.topografix.com/GPX/1/1/gpx.xsd" version="1.1" creator="VisuGPX - https://www.visugpx.com">
  <metadata>
    <name>MontHaut_Pegairolles19-01-20</name>
  </metadata>
  <trk>
    <name><![CDATA[SaumaneVaucluseMarculy]]></name>
    <trkseg>
      <trkpt lat="43.9394" lon="5.10812">
        <ele>122.2</ele>
        <time>2020-02-23T10:02:52.000Z</time>
      </trkpt>
      <trkpt lat="43.9394" lon="5.10813">
        <ele>127</ele>
        <time>2020-02-23T10:02:53.000Z</time>
      </trkpt>
      <trkpt lat="43.9394" lon="5.10813">
        <ele>131.4</ele>
        <time>2020-02-23T10:02:54.000Z</time>
      </trkpt>
      <trkpt lat="43.9394" lon="5.10814">
        <ele>135.7</ele>
        <time>2020-02-23T10:02:55.000Z</time>
      </trkpt>
      <trkpt lat="43.9394" lon="5.10814">
        <ele>140</ele>
        <time>2020-02-23T10:02:56.000Z</time>
      </trkpt>
      <trkpt lat="43.9394" lon="5.10814">
        <ele>143.9</ele>
        <time>2020-02-23T10:02:57.000Z</time>
      </trkpt>
      <trkpt lat="43.9394" lon="5.10814">
        <ele>147.7</ele>
        <time>2020-02-23T10:02:58.000Z</time>
      </trkpt>
      <trkpt lat="43.9394" lon="5.10814">
        <ele>151.1</ele>
        <time>2020-02-23T10:02:59.000Z</time>
      </trkpt>
      <trkpt lat="43.9394" lon="5.10814">
        <ele>154.4</ele>
        <time>2020-02-23T10:03:00.000Z</time>
      </trkpt>
      <trkpt lat="43.93941" lon="5.10813">
        <ele>157.8</ele>
        <time>2020-02-23T10:03:01.000Z</time>
      </trkpt>
      <trkpt lat="43.93941" lon="5.10813">
        <ele>161.2</ele>
        <time>2020-02-23T10:03:02.000Z</time>
      </trkpt>
      <trkpt lat="43.93941" lon="5.10813">
        <ele>161.2</ele>
        <time>2020-02-23T10:03:03.000Z</time>
      </trkpt>
      <trkpt lat="43.93941" lon="5.10813">
        <ele>166.9</ele>
        <time>2020-02-23T10:03:04.000Z</time>
      </trkpt>
      <trkpt lat="43.93941" lon="5.10813">
        <ele>172.2</ele>
        <time>2020-02-23T10:03:06.000Z</time>
      </trkpt>
      <trkpt lat="43.93941" lon="5.10813">
        <ele>177.5</ele>
        <time>2020-02-23T10:03:08.000Z</time>
      </trkpt>
      <trkpt lat="43.93941" lon="5.10813">
        <ele>182.3</ele>
        <time>2020-02-23T10:03:10.000Z</time>
      </trkpt>
      <trkpt lat="43.93941" lon="5.10813">
        <ele>186.6</ele>
        <time>2020-02-23T10:03:12.000Z</time>
      </trkpt>
      <trkpt lat="43.9394" lon="5.10814">
        <ele>191</ele>
        <time>2020-02-23T10:03:14.000Z</time>
      </trkpt>
      <trkpt lat="43.9394" lon="5.10813">
        <ele>194.8</ele>
        <time>2020-02-23T10:03:16.000Z</time>
      </trkpt>
      <trkpt lat="43.93941" lon="5.10812">
        <ele>198.6</ele>
        <time>2020-02-23T10:03:18.000Z</time>
      </trkpt>
      <trkpt lat="43.93942" lon="5.10811">
        <ele>203.5</ele>
        <time>2020-02-23T10:03:21.000Z</time>
      </trkpt>
      <trkpt lat="43.93943" lon="5.1081">
        <ele>208.3</ele>
        <time>2020-02-23T10:03:24.000Z</time>
      </trkpt>
      <trkpt lat="43.93943" lon="5.1081">
        <ele>212.1</ele>
        <time>2020-02-23T10:03:27.000Z</time>
      </trkpt>
      <trkpt lat="43.93944" lon="5.10809">
        <ele>213.1</ele>
        <time>2020-02-23T10:03:29.000Z</time>
      </trkpt>
      <trkpt lat="43.93944" lon="5.10809">
        <ele>216.9</ele>
        <time>2020-02-23T10:03:31.000Z</time>
      </trkpt>
      <trkpt lat="43.93945" lon="5.10808">
        <ele>220.3</ele>
        <time>2020-02-23T10:03:35.000Z</time>
      </trkpt>
      <trkpt lat="43.93946" lon="5.10807">
        <ele>223.6</ele>
        <time>2020-02-23T10:03:39.000Z</time>
      </trkpt>
      <trkpt lat="43.93948" lon="5.10807">
        <ele>227.5</ele>
        <time>2020-02-23T10:03:44.000Z</time>
      </trkpt>
      <trkpt lat="43.93949" lon="5.10807">
        <ele>227.5</ele>
        <time>2020-02-23T10:03:45.000Z</time>
      </trkpt>
      <trkpt lat="43.93955" lon="5.108">
        <ele>230.9</ele>
        <time>2020-02-23T10:03:51.000Z</time>
      </trkpt>
      <trkpt lat="43.93956" lon="5.108">
        <ele>231.8</ele>
        <time>2020-02-23T10:03:53.000Z</time>
      </trkpt>
      <trkpt lat="43.93956" lon="5.10801">
        <ele>232.8</ele>
        <time>2020-02-23T10:03:55.000Z</time>
      </trkpt>
      <trkpt lat="43.93954" lon="5.10808">
        <ele>235.7</ele>
        <time>2020-02-23T10:04:32.000Z</time>
      </trkpt>
      <trkpt lat="43.93948" lon="5.10808">
        <ele>235.2</ele>
        <time>2020-02-23T10:04:54.000Z</time>
      </trkpt>
      <trkpt lat="43.9395" lon="5.10807">
        <ele>235.7</ele>
        <time>2020-02-23T10:05:20.000Z</time>
      </trkpt>
      <trkpt lat="43.9395" lon="5.10809">
        <ele>236.6</ele>
        <time>2020-02-23T10:05:44.000Z</time>
      </trkpt>
      <trkpt lat="43.93951" lon="5.1081">
        <ele>236.6</ele>
        <time>2020-02-23T10:05:57.000Z</time>
      </trkpt>
      <trkpt lat="43.93949" lon="5.10809">
        <ele>237.1</ele>
        <time>2020-02-23T10:06:20.000Z</time>
      </trkpt>
      <trkpt lat="43.93958" lon="5.10824">
        <ele>237.1</ele>
        <time>2020-02-23T10:06:33.000Z</time>
      </trkpt>
      <trkpt lat="43.93966" lon="5.10833">
        <ele>238.5</ele>
        <time>2020-02-23T10:06:47.000Z</time>
      </trkpt>
      <trkpt lat="43.93975" lon="5.10836">
        <ele>239</ele>
        <time>2020-02-23T10:07:01.000Z</time>
      </trkpt>
      <trkpt lat="43.93977" lon="5.10837">
        <ele>239.5</ele>
        <time>2020-02-23T10:07:19.000Z</time>
      </trkpt>
      <trkpt lat="43.93978" lon="5.10838">
        <ele>239</ele>
        <time>2020-02-23T10:07:38.000Z</time>
      </trkpt>
      <trkpt lat="43.93977" lon="5.10843">
        <ele>239.5</ele>
        <time>2020-02-23T10:07:42.000Z</time>
      </trkpt>
      <trkpt lat="43.93969" lon="5.1086">
        <ele>238.5</ele>
        <time>2020-02-23T10:07:58.000Z</time>
      </trkpt>
      <trkpt lat="43.93963" lon="5.10855">
        <ele>239</ele>
        <time>2020-02-23T10:08:06.000Z</time>
      </trkpt>
      <trkpt lat="43.93948" lon="5.10842">
        <ele>237.6</ele>
        <time>2020-02-23T10:08:21.000Z</time>
      </trkpt>
      <trkpt lat="43.93946" lon="5.1084">
        <ele>237.6</ele>
        <time>2020-02-23T10:08:23.000Z</time>
      </trkpt>
      <trkpt lat="43.93929" lon="5.10828">
        <ele>236.1</ele>
        <time>2020-02-23T10:08:40.000Z</time>
      </trkpt>
      <trkpt lat="43.93917" lon="5.10805">
        <ele>235.7</ele>
        <time>2020-02-23T10:08:59.000Z</time>
      </trkpt>
      <trkpt lat="43.93917" lon="5.10796">
        <ele>235.2</ele>
        <time>2020-02-23T10:09:05.000Z</time>
      </trkpt>
      <trkpt lat="43.93917" lon="5.10791">
        <ele>235.2</ele>
        <time>2020-02-23T10:09:08.000Z</time>
      </trkpt>
      <trkpt lat="43.93925" lon="5.1077">
        <ele>234.7</ele>
        <time>2020-02-23T10:09:24.000Z</time>
      </trkpt>
      <trkpt lat="43.93926" lon="5.10766">
        <ele>234.7</ele>
        <time>2020-02-23T10:09:27.000Z</time>
      </trkpt>
      <trkpt lat="43.93912" lon="5.10762">
        <ele>231.3</ele>
        <time>2020-02-23T10:09:41.000Z</time>
      </trkpt>
      <trkpt lat="43.93897" lon="5.10758">
        <ele>228.4</ele>
        <time>2020-02-23T10:09:57.000Z</time>
      </trkpt>
      <trkpt lat="43.93882" lon="5.10751">
        <ele>226.5</ele>
        <time>2020-02-23T10:10:12.000Z</time>
      </trkpt>
      <trkpt lat="43.93869" lon="5.10742">
        <ele>225.1</ele>
        <time>2020-02-23T10:10:25.000Z</time>
      </trkpt>
      <trkpt lat="43.93852" lon="5.10732">
        <ele>222.7</ele>
        <time>2020-02-23T10:10:44.000Z</time>
      </trkpt>
      <trkpt lat="43.93844" lon="5.10729">
        <ele>222.2</ele>
        <time>2020-02-23T10:11:00.000Z</time>
      </trkpt>
      <trkpt lat="43.93844" lon="5.10733">
        <ele>222.2</ele>
        <time>2020-02-23T10:11:21.000Z</time>
      </trkpt>
      <trkpt lat="43.93839" lon="5.10736">
        <ele>221.2</ele>
        <time>2020-02-23T10:11:33.000Z</time>
      </trkpt>
      <trkpt lat="43.9384" lon="5.10735">
        <ele>221.2</ele>
        <time>2020-02-23T10:11:39.000Z</time>
      </trkpt>
      <trkpt lat="43.93836" lon="5.10729">
        <ele>221.7</ele>
        <time>2020-02-23T10:11:52.000Z</time>
      </trkpt>
      <trkpt lat="43.93829" lon="5.10709">
        <ele>220.8</ele>
        <time>2020-02-23T10:12:09.000Z</time>
      </trkpt>
      <trkpt lat="43.93828" lon="5.10706">
        <ele>220.8</ele>
        <time>2020-02-23T10:12:27.000Z</time>
      </trkpt>
      <trkpt lat="43.93828" lon="5.10717">
        <ele>220.8</ele>
        <time>2020-02-23T10:12:42.000Z</time>
      </trkpt>
      <trkpt lat="43.93834" lon="5.10735">
        <ele>221.7</ele>
        <time>2020-02-23T10:12:58.000Z</time>
      </trkpt>
      <trkpt lat="43.93838" lon="5.10739">
        <ele>221.7</ele>
        <time>2020-02-23T10:13:10.000Z</time>
      </trkpt>
      <trkpt lat="43.93838" lon="5.10743">
        <ele>222.2</ele>
        <time>2020-02-23T10:13:17.000Z</time>
      </trkpt>
      <trkpt lat="43.93847" lon="5.10759">
        <ele>219.8</ele>
        <time>2020-02-23T10:13:31.000Z</time>
      </trkpt>
      <trkpt lat="43.93849" lon="5.10764">
        <ele>218.8</ele>
        <time>2020-02-23T10:13:35.000Z</time>
      </trkpt>
      <trkpt lat="43.93849" lon="5.10789">
        <ele>216.9</ele>
        <time>2020-02-23T10:13:53.000Z</time>
      </trkpt>
      <trkpt lat="43.93848" lon="5.10793">
        <ele>216.4</ele>
        <time>2020-02-23T10:13:56.000Z</time>
      </trkpt>
      <trkpt lat="43.9384" lon="5.10808">
        <ele>215.5</ele>
        <time>2020-02-23T10:14:10.000Z</time>
      </trkpt>
      <trkpt lat="43.93838" lon="5.10812">
        <ele>215</ele>
        <time>2020-02-23T10:14:14.000Z</time>
      </trkpt>
      <trkpt lat="43.93838" lon="5.10833">
        <ele>213.6</ele>
        <time>2020-02-23T10:14:30.000Z</time>
      </trkpt>
      <trkpt lat="43.93843" lon="5.10854">
        <ele>212.6</ele>
        <time>2020-02-23T10:14:47.000Z</time>
      </trkpt>
      <trkpt lat="43.93852" lon="5.10868">
        <ele>212.1</ele>
        <time>2020-02-23T10:15:02.000Z</time>
      </trkpt>
      <trkpt lat="43.93863" lon="5.10881">
        <ele>210.7</ele>
        <time>2020-02-23T10:15:20.000Z</time>
      </trkpt>
      <trkpt lat="43.93874" lon="5.10892">
        <ele>209.7</ele>
        <time>2020-02-23T10:15:36.000Z</time>
      </trkpt>
      <trkpt lat="43.9388" lon="5.10896">
        <ele>209.2</ele>
        <time>2020-02-23T10:15:50.000Z</time>
      </trkpt>
      <trkpt lat="43.93887" lon="5.10904">
        <ele>209.2</ele>
        <time>2020-02-23T10:16:13.000Z</time>
      </trkpt>
      <trkpt lat="43.93899" lon="5.10918">
        <ele>208.7</ele>
        <time>2020-02-23T10:16:33.000Z</time>
      </trkpt>
      <trkpt lat="43.9391" lon="5.10933">
        <ele>207.3</ele>
        <time>2020-02-23T10:16:52.000Z</time>
      </trkpt>
      <trkpt lat="43.93909" lon="5.10938">
        <ele>207.3</ele>
        <time>2020-02-23T10:17:08.000Z</time>
      </trkpt>
      <trkpt lat="43.93912" lon="5.10939">
        <ele>207.3</ele>
        <time>2020-02-23T10:17:36.000Z</time>
      </trkpt>
      <trkpt lat="43.93923" lon="5.10954">
        <ele>206.8</ele>
        <time>2020-02-23T10:17:54.000Z</time>
      </trkpt>
      <trkpt lat="43.9393" lon="5.10968">
        <ele>206.3</ele>
        <time>2020-02-23T10:18:12.000Z</time>
      </trkpt>
      <trkpt lat="43.93933" lon="5.10977">
        <ele>206.8</ele>
        <time>2020-02-23T10:18:29.000Z</time>
      </trkpt>
      <trkpt lat="43.93928" lon="5.10986">
        <ele>206.8</ele>
        <time>2020-02-23T10:18:54.000Z</time>
      </trkpt>
      <trkpt lat="43.93929" lon="5.10982">
        <ele>206.8</ele>
        <time>2020-02-23T10:19:15.000Z</time>
      </trkpt>
      <trkpt lat="43.93932" lon="5.10978">
        <ele>207.3</ele>
        <time>2020-02-23T10:19:51.000Z</time>
      </trkpt>
      <trkpt lat="43.93936" lon="5.10983">
        <ele>207.3</ele>
        <time>2020-02-23T10:20:22.000Z</time>
      </trkpt>
      <trkpt lat="43.93937" lon="5.10988">
        <ele>207.3</ele>
        <time>2020-02-23T10:20:25.000Z</time>
      </trkpt>
      <trkpt lat="43.93945" lon="5.11008">
        <ele>208.3</ele>
        <time>2020-02-23T10:20:41.000Z</time>
      </trkpt>
      <trkpt lat="43.93958" lon="5.11021">
        <ele>206.8</ele>
        <time>2020-02-23T10:20:55.000Z</time>
      </trkpt>
      <trkpt lat="43.93965" lon="5.1103">
        <ele>206.3</ele>
        <time>2020-02-23T10:21:08.000Z</time>
      </trkpt>
      <trkpt lat="43.93974" lon="5.11047">
        <ele>206.3</ele>
        <time>2020-02-23T10:21:22.000Z</time>
      </trkpt>
      <trkpt lat="43.93985" lon="5.11065">
        <ele>206.3</ele>
        <time>2020-02-23T10:21:37.000Z</time>
      </trkpt>
      <trkpt lat="43.93999" lon="5.11077">
        <ele>206.8</ele>
        <time>2020-02-23T10:21:53.000Z</time>
      </trkpt>
      <trkpt lat="43.94014" lon="5.11089">
        <ele>205.9</ele>
        <time>2020-02-23T10:22:10.000Z</time>
      </trkpt>
      <trkpt lat="43.94016" lon="5.11093">
        <ele>205.9</ele>
        <time>2020-02-23T10:22:14.000Z</time>
      </trkpt>
      <trkpt lat="43.9403" lon="5.11106">
        <ele>205.9</ele>
        <time>2020-02-23T10:22:29.000Z</time>
      </trkpt>
      <trkpt lat="43.94042" lon="5.11117">
        <ele>205.9</ele>
        <time>2020-02-23T10:22:43.000Z</time>
      </trkpt>
      <trkpt lat="43.94055" lon="5.11126">
        <ele>204.9</ele>
        <time>2020-02-23T10:22:57.000Z</time>
      </trkpt>
      <trkpt lat="43.9407" lon="5.11136">
        <ele>202.5</ele>
        <time>2020-02-23T10:23:15.000Z</time>
      </trkpt>
      <trkpt lat="43.9408" lon="5.11141">
        <ele>201.1</ele>
        <time>2020-02-23T10:23:27.000Z</time>
      </trkpt>
      <trkpt lat="43.94089" lon="5.11157">
        <ele>198.6</ele>
        <time>2020-02-23T10:23:43.000Z</time>
      </trkpt>
      <trkpt lat="43.94099" lon="5.11164">
        <ele>197.7</ele>
        <time>2020-02-23T10:23:56.000Z</time>
      </trkpt>
      <trkpt lat="43.94096" lon="5.11161">
        <ele>197.2</ele>
        <time>2020-02-23T10:24:09.000Z</time>
      </trkpt>
      <trkpt lat="43.94093" lon="5.11162">
        <ele>196.7</ele>
        <time>2020-02-23T10:24:24.000Z</time>
      </trkpt>
      <trkpt lat="43.94085" lon="5.11159">
        <ele>195.8</ele>
        <time>2020-02-23T10:24:42.000Z</time>
      </trkpt>
      <trkpt lat="43.94084" lon="5.11159">
        <ele>195.8</ele>
        <time>2020-02-23T10:25:04.000Z</time>
      </trkpt>
      <trkpt lat="43.94085" lon="5.11161">
        <ele>195.8</ele>
        <time>2020-02-23T10:25:20.000Z</time>
      </trkpt>
      <trkpt lat="43.94089" lon="5.11161">
        <ele>195.8</ele>
        <time>2020-02-23T10:25:53.000Z</time>
      </trkpt>
      <trkpt lat="43.9409" lon="5.11163">
        <ele>196.3</ele>
        <time>2020-02-23T10:26:27.000Z</time>
      </trkpt>
      <trkpt lat="43.94091" lon="5.11166">
        <ele>196.7</ele>
        <time>2020-02-23T10:27:02.000Z</time>
      </trkpt>
      <trkpt lat="43.94074" lon="5.11165">
        <ele>195.8</ele>
        <time>2020-02-23T10:27:13.000Z</time>
      </trkpt>
      <trkpt lat="43.9405" lon="5.11158">
        <ele>193.8</ele>
        <time>2020-02-23T10:27:30.000Z</time>
      </trkpt>
      <trkpt lat="43.9403" lon="5.1115">
        <ele>192.4</ele>
        <time>2020-02-23T10:27:46.000Z</time>
      </trkpt>
      <trkpt lat="43.94013" lon="5.11139">
        <ele>191.9</ele>
        <time>2020-02-23T10:28:00.000Z</time>
      </trkpt>
      <trkpt lat="43.94002" lon="5.11131">
        <ele>189</ele>
        <time>2020-02-23T10:28:15.000Z</time>
      </trkpt>
      <trkpt lat="43.93981" lon="5.11125">
        <ele>186.1</ele>
        <time>2020-02-23T10:28:30.000Z</time>
      </trkpt>
      <trkpt lat="43.93977" lon="5.11122">
        <ele>184.7</ele>
        <time>2020-02-23T10:28:37.000Z</time>
      </trkpt>
      <trkpt lat="43.9398" lon="5.1114">
        <ele>185.7</ele>
        <time>2020-02-23T10:28:52.000Z</time>
      </trkpt>
      <trkpt lat="43.9399" lon="5.11152">
        <ele>188.1</ele>
        <time>2020-02-23T10:29:07.000Z</time>
      </trkpt>
      <trkpt lat="43.93996" lon="5.11162">
        <ele>189</ele>
        <time>2020-02-23T10:29:19.000Z</time>
      </trkpt>
      <trkpt lat="43.93997" lon="5.11162">
        <ele>189.5</ele>
        <time>2020-02-23T10:29:20.000Z</time>
      </trkpt>
      <trkpt lat="43.94005" lon="5.1117">
        <ele>191</ele>
        <time>2020-02-23T10:29:34.000Z</time>
      </trkpt>
      <trkpt lat="43.94008" lon="5.11171">
        <ele>191.4</ele>
        <time>2020-02-23T10:29:37.000Z</time>
      </trkpt>
      <trkpt lat="43.94016" lon="5.11178">
        <ele>193.4</ele>
        <time>2020-02-23T10:29:50.000Z</time>
      </trkpt>
      <trkpt lat="43.94019" lon="5.11189">
        <ele>196.3</ele>
        <time>2020-02-23T10:30:06.000Z</time>
      </trkpt>
      <trkpt lat="43.94028" lon="5.11193">
        <ele>197.7</ele>
        <time>2020-02-23T10:30:22.000Z</time>
      </trkpt>
      <trkpt lat="43.94036" lon="5.11199">
        <ele>198.6</ele>
        <time>2020-02-23T10:30:37.000Z</time>
      </trkpt>
      <trkpt lat="43.94047" lon="5.11208">
        <ele>199.6</ele>
        <time>2020-02-23T10:30:50.000Z</time>
      </trkpt>
      <trkpt lat="43.94056" lon="5.11214">
        <ele>201.1</ele>
        <time>2020-02-23T10:31:02.000Z</time>
      </trkpt>
      <trkpt lat="43.94058" lon="5.11212">
        <ele>200.1</ele>
        <time>2020-02-23T10:31:18.000Z</time>
      </trkpt>
      <trkpt lat="43.94063" lon="5.11206">
        <ele>197.7</ele>
        <time>2020-02-23T10:31:29.000Z</time>
      </trkpt>
      <trkpt lat="43.94059" lon="5.11194">
        <ele>196.7</ele>
        <time>2020-02-23T10:31:48.000Z</time>
      </trkpt>
      <trkpt lat="43.94057" lon="5.11197">
        <ele>197.2</ele>
        <time>2020-02-23T10:32:11.000Z</time>
      </trkpt>
      <trkpt lat="43.94057" lon="5.11194">
        <ele>196.3</ele>
        <time>2020-02-23T10:32:35.000Z</time>
      </trkpt>
      <trkpt lat="43.94063" lon="5.11194">
        <ele>197.2</ele>
        <time>2020-02-23T10:33:00.000Z</time>
      </trkpt>
      <trkpt lat="43.94063" lon="5.11195">
        <ele>197.2</ele>
        <time>2020-02-23T10:33:26.000Z</time>
      </trkpt>
      <trkpt lat="43.94064" lon="5.11195">
        <ele>196.7</ele>
        <time>2020-02-23T10:33:55.000Z</time>
      </trkpt>
      <trkpt lat="43.94057" lon="5.11201">
        <ele>197.2</ele>
        <time>2020-02-23T10:34:10.000Z</time>
      </trkpt>
      <trkpt lat="43.94061" lon="5.11212">
        <ele>199.1</ele>
        <time>2020-02-23T10:34:26.000Z</time>
      </trkpt>
      <trkpt lat="43.94057" lon="5.11217">
        <ele>201.5</ele>
        <time>2020-02-23T10:34:42.000Z</time>
      </trkpt>
      <trkpt lat="43.94066" lon="5.11224">
        <ele>203.5</ele>
        <time>2020-02-23T10:35:01.000Z</time>
      </trkpt>
      <trkpt lat="43.94082" lon="5.11228">
        <ele>204.9</ele>
        <time>2020-02-23T10:35:18.000Z</time>
      </trkpt>
      <trkpt lat="43.94093" lon="5.11233">
        <ele>205.9</ele>
        <time>2020-02-23T10:35:31.000Z</time>
      </trkpt>
      <trkpt lat="43.94103" lon="5.11242">
        <ele>207.3</ele>
        <time>2020-02-23T10:35:47.000Z</time>
      </trkpt>
      <trkpt lat="43.94114" lon="5.11251">
        <ele>209.7</ele>
        <time>2020-02-23T10:36:01.000Z</time>
      </trkpt>
      <trkpt lat="43.94122" lon="5.11258">
        <ele>210.2</ele>
        <time>2020-02-23T10:36:15.000Z</time>
      </trkpt>
      <trkpt lat="43.94135" lon="5.11262">
        <ele>212.1</ele>
        <time>2020-02-23T10:36:31.000Z</time>
      </trkpt>
      <trkpt lat="43.94148" lon="5.11266">
        <ele>213.6</ele>
        <time>2020-02-23T10:36:46.000Z</time>
      </trkpt>
      <trkpt lat="43.94163" lon="5.11271">
        <ele>214.5</ele>
        <time>2020-02-23T10:37:01.000Z</time>
      </trkpt>
      <trkpt lat="43.94167" lon="5.11277">
        <ele>215.5</ele>
        <time>2020-02-23T10:37:16.000Z</time>
      </trkpt>
      <trkpt lat="43.94183" lon="5.11278">
        <ele>216.9</ele>
        <time>2020-02-23T10:37:32.000Z</time>
      </trkpt>
      <trkpt lat="43.94195" lon="5.11282">
        <ele>218.8</ele>
        <time>2020-02-23T10:37:46.000Z</time>
      </trkpt>
      <trkpt lat="43.94205" lon="5.11289">
        <ele>220.3</ele>
        <time>2020-02-23T10:38:03.000Z</time>
      </trkpt>
      <trkpt lat="43.94214" lon="5.11296">
        <ele>222.2</ele>
        <time>2020-02-23T10:38:18.000Z</time>
      </trkpt>
      <trkpt lat="43.94225" lon="5.11305">
        <ele>224.1</ele>
        <time>2020-02-23T10:38:35.000Z</time>
      </trkpt>
      <trkpt lat="43.94233" lon="5.11317">
        <ele>226.1</ele>
        <time>2020-02-23T10:38:52.000Z</time>
      </trkpt>
      <trkpt lat="43.94242" lon="5.11324">
        <ele>227.5</ele>
        <time>2020-02-23T10:39:07.000Z</time>
      </trkpt>
      <trkpt lat="43.94252" lon="5.11326">
        <ele>229.9</ele>
        <time>2020-02-23T10:39:23.000Z</time>
      </trkpt>
      <trkpt lat="43.94254" lon="5.11328">
        <ele>230.9</ele>
        <time>2020-02-23T10:39:38.000Z</time>
      </trkpt>
      <trkpt lat="43.94254" lon="5.11327">
        <ele>231.3</ele>
        <time>2020-02-23T10:40:04.000Z</time>
      </trkpt>
      <trkpt lat="43.94251" lon="5.11328">
        <ele>231.3</ele>
        <time>2020-02-23T10:40:27.000Z</time>
      </trkpt>
      <trkpt lat="43.94254" lon="5.11323">
        <ele>231.8</ele>
        <time>2020-02-23T10:40:54.000Z</time>
      </trkpt>
      <trkpt lat="43.9426" lon="5.11329">
        <ele>233.7</ele>
        <time>2020-02-23T10:41:15.000Z</time>
      </trkpt>
      <trkpt lat="43.94272" lon="5.11335">
        <ele>236.6</ele>
        <time>2020-02-23T10:41:32.000Z</time>
      </trkpt>
      <trkpt lat="43.94283" lon="5.1135">
        <ele>239</ele>
        <time>2020-02-23T10:41:50.000Z</time>
      </trkpt>
      <trkpt lat="43.94288" lon="5.1136">
        <ele>241.4</ele>
        <time>2020-02-23T10:42:08.000Z</time>
      </trkpt>
      <trkpt lat="43.94293" lon="5.11372">
        <ele>243.8</ele>
        <time>2020-02-23T10:42:26.000Z</time>
      </trkpt>
      <trkpt lat="43.94294" lon="5.11383">
        <ele>246.2</ele>
        <time>2020-02-23T10:42:42.000Z</time>
      </trkpt>
      <trkpt lat="43.94304" lon="5.11396">
        <ele>248.2</ele>
        <time>2020-02-23T10:42:59.000Z</time>
      </trkpt>
      <trkpt lat="43.94313" lon="5.11408">
        <ele>250.1</ele>
        <time>2020-02-23T10:43:21.000Z</time>
      </trkpt>
      <trkpt lat="43.94322" lon="5.11418">
        <ele>253</ele>
        <time>2020-02-23T10:43:39.000Z</time>
      </trkpt>
      <trkpt lat="43.94322" lon="5.11427">
        <ele>254.4</ele>
        <time>2020-02-23T10:43:54.000Z</time>
      </trkpt>
      <trkpt lat="43.94325" lon="5.11439">
        <ele>257.3</ele>
        <time>2020-02-23T10:44:11.000Z</time>
      </trkpt>
      <trkpt lat="43.94328" lon="5.11447">
        <ele>259.7</ele>
        <time>2020-02-23T10:44:29.000Z</time>
      </trkpt>
      <trkpt lat="43.94327" lon="5.11453">
        <ele>261.6</ele>
        <time>2020-02-23T10:44:43.000Z</time>
      </trkpt>
      <trkpt lat="43.94322" lon="5.11456">
        <ele>263.1</ele>
        <time>2020-02-23T10:44:56.000Z</time>
      </trkpt>
      <trkpt lat="43.94323" lon="5.11463">
        <ele>265.5</ele>
        <time>2020-02-23T10:45:13.000Z</time>
      </trkpt>
      <trkpt lat="43.94319" lon="5.11469">
        <ele>266.9</ele>
        <time>2020-02-23T10:45:25.000Z</time>
      </trkpt>
      <trkpt lat="43.94319" lon="5.11475">
        <ele>269.3</ele>
        <time>2020-02-23T10:45:38.000Z</time>
      </trkpt>
      <trkpt lat="43.94317" lon="5.11483">
        <ele>271.7</ele>
        <time>2020-02-23T10:45:54.000Z</time>
      </trkpt>
      <trkpt lat="43.94314" lon="5.11491">
        <ele>273.6</ele>
        <time>2020-02-23T10:46:09.000Z</time>
      </trkpt>
      <trkpt lat="43.94312" lon="5.11492">
        <ele>274.1</ele>
        <time>2020-02-23T10:46:25.000Z</time>
      </trkpt>
      <trkpt lat="43.94312" lon="5.11489">
        <ele>273.6</ele>
        <time>2020-02-23T10:46:45.000Z</time>
      </trkpt>
      <trkpt lat="43.94311" lon="5.11491">
        <ele>274.1</ele>
        <time>2020-02-23T10:47:09.000Z</time>
      </trkpt>
      <trkpt lat="43.94314" lon="5.11493">
        <ele>274.1</ele>
        <time>2020-02-23T10:47:35.000Z</time>
      </trkpt>
      <trkpt lat="43.94314" lon="5.11497">
        <ele>275.6</ele>
        <time>2020-02-23T10:47:55.000Z</time>
      </trkpt>
      <trkpt lat="43.94314" lon="5.11504">
        <ele>276.5</ele>
        <time>2020-02-23T10:48:14.000Z</time>
      </trkpt>
      <trkpt lat="43.94303" lon="5.1149">
        <ele>278.9</ele>
        <time>2020-02-23T10:48:34.000Z</time>
      </trkpt>
      <trkpt lat="43.94302" lon="5.11493">
        <ele>279.9</ele>
        <time>2020-02-23T10:48:49.000Z</time>
      </trkpt>
      <trkpt lat="43.94304" lon="5.11511">
        <ele>280.8</ele>
        <time>2020-02-23T10:49:07.000Z</time>
      </trkpt>
      <trkpt lat="43.94309" lon="5.11524">
        <ele>282.3</ele>
        <time>2020-02-23T10:49:21.000Z</time>
      </trkpt>
      <trkpt lat="43.94308" lon="5.11531">
        <ele>282.8</ele>
        <time>2020-02-23T10:49:43.000Z</time>
      </trkpt>
      <trkpt lat="43.9431" lon="5.11525">
        <ele>282.8</ele>
        <time>2020-02-23T10:50:13.000Z</time>
      </trkpt>
      <trkpt lat="43.9432" lon="5.1153">
        <ele>282.8</ele>
        <time>2020-02-23T10:50:42.000Z</time>
      </trkpt>
      <trkpt lat="43.94319" lon="5.11528">
        <ele>282.8</ele>
        <time>2020-02-23T10:51:12.000Z</time>
      </trkpt>
      <trkpt lat="43.94314" lon="5.11542">
        <ele>284.2</ele>
        <time>2020-02-23T10:51:26.000Z</time>
      </trkpt>
      <trkpt lat="43.9431" lon="5.11541">
        <ele>284.2</ele>
        <time>2020-02-23T10:51:44.000Z</time>
      </trkpt>
      <trkpt lat="43.94307" lon="5.11545">
        <ele>285.2</ele>
        <time>2020-02-23T10:51:55.000Z</time>
      </trkpt>
      <trkpt lat="43.94304" lon="5.11554">
        <ele>285.6</ele>
        <time>2020-02-23T10:52:10.000Z</time>
      </trkpt>
      <trkpt lat="43.94309" lon="5.11561">
        <ele>286.1</ele>
        <time>2020-02-23T10:52:22.000Z</time>
      </trkpt>
      <trkpt lat="43.94311" lon="5.11562">
        <ele>287.1</ele>
        <time>2020-02-23T10:52:34.000Z</time>
      </trkpt>
      <trkpt lat="43.94313" lon="5.11565">
        <ele>287.6</ele>
        <time>2020-02-23T10:52:50.000Z</time>
      </trkpt>
      <trkpt lat="43.94313" lon="5.11562">
        <ele>286.6</ele>
        <time>2020-02-23T10:53:05.000Z</time>
      </trkpt>
      <trkpt lat="43.94311" lon="5.11564">
        <ele>286.6</ele>
        <time>2020-02-23T10:53:20.000Z</time>
      </trkpt>
      <trkpt lat="43.94311" lon="5.11558">
        <ele>286.1</ele>
        <time>2020-02-23T10:53:40.000Z</time>
      </trkpt>
      <trkpt lat="43.94309" lon="5.11547">
        <ele>284.7</ele>
        <time>2020-02-23T10:53:59.000Z</time>
      </trkpt>
      <trkpt lat="43.94305" lon="5.11542">
        <ele>283.7</ele>
        <time>2020-02-23T10:54:16.000Z</time>
      </trkpt>
      <trkpt lat="43.94305" lon="5.11532">
        <ele>282.3</ele>
        <time>2020-02-23T10:54:36.000Z</time>
      </trkpt>
      <trkpt lat="43.94304" lon="5.11522">
        <ele>281.3</ele>
        <time>2020-02-23T10:54:52.000Z</time>
      </trkpt>
      <trkpt lat="43.94296" lon="5.11503">
        <ele>280.4</ele>
        <time>2020-02-23T10:55:06.000Z</time>
      </trkpt>
      <trkpt lat="43.94296" lon="5.11502">
        <ele>280.4</ele>
        <time>2020-02-23T10:55:07.000Z</time>
      </trkpt>
      <trkpt lat="43.943" lon="5.11492">
        <ele>278.4</ele>
        <time>2020-02-23T10:55:22.000Z</time>
      </trkpt>
      <trkpt lat="43.94308" lon="5.11503">
        <ele>277</ele>
        <time>2020-02-23T10:55:35.000Z</time>
      </trkpt>
      <trkpt lat="43.94306" lon="5.11491">
        <ele>278</ele>
        <time>2020-02-23T10:55:51.000Z</time>
      </trkpt>
      <trkpt lat="43.94301" lon="5.11477">
        <ele>279.4</ele>
        <time>2020-02-23T10:56:04.000Z</time>
      </trkpt>
      <trkpt lat="43.94296" lon="5.11466">
        <ele>280.8</ele>
        <time>2020-02-23T10:56:19.000Z</time>
      </trkpt>
      <trkpt lat="43.94287" lon="5.11464">
        <ele>283.3</ele>
        <time>2020-02-23T10:56:33.000Z</time>
      </trkpt>
      <trkpt lat="43.94276" lon="5.11467">
        <ele>285.6</ele>
        <time>2020-02-23T10:56:50.000Z</time>
      </trkpt>
      <trkpt lat="43.94265" lon="5.11466">
        <ele>288.5</ele>
        <time>2020-02-23T10:57:08.000Z</time>
      </trkpt>
      <trkpt lat="43.94262" lon="5.11468">
        <ele>289</ele>
        <time>2020-02-23T10:57:13.000Z</time>
      </trkpt>
      <trkpt lat="43.94254" lon="5.11474">
        <ele>290.9</ele>
        <time>2020-02-23T10:57:27.000Z</time>
      </trkpt>
      <trkpt lat="43.94243" lon="5.1148">
        <ele>293.8</ele>
        <time>2020-02-23T10:57:46.000Z</time>
      </trkpt>
      <trkpt lat="43.94235" lon="5.11483">
        <ele>295.7</ele>
        <time>2020-02-23T10:58:00.000Z</time>
      </trkpt>
      <trkpt lat="43.94225" lon="5.11489">
        <ele>297.7</ele>
        <time>2020-02-23T10:58:17.000Z</time>
      </trkpt>
      <trkpt lat="43.94216" lon="5.11492">
        <ele>299.1</ele>
        <time>2020-02-23T10:58:31.000Z</time>
      </trkpt>
      <trkpt lat="43.94209" lon="5.11497">
        <ele>300.5</ele>
        <time>2020-02-23T10:58:50.000Z</time>
      </trkpt>
      <trkpt lat="43.942" lon="5.115">
        <ele>303</ele>
        <time>2020-02-23T10:59:06.000Z</time>
      </trkpt>
      <trkpt lat="43.94191" lon="5.1151">
        <ele>304.9</ele>
        <time>2020-02-23T10:59:25.000Z</time>
      </trkpt>
      <trkpt lat="43.94184" lon="5.11523">
        <ele>307.3</ele>
        <time>2020-02-23T10:59:42.000Z</time>
      </trkpt>
      <trkpt lat="43.94176" lon="5.11532">
        <ele>308.2</ele>
        <time>2020-02-23T10:59:58.000Z</time>
      </trkpt>
      <trkpt lat="43.94166" lon="5.11542">
        <ele>309.7</ele>
        <time>2020-02-23T11:00:14.000Z</time>
      </trkpt>
      <trkpt lat="43.94158" lon="5.11552">
        <ele>310.6</ele>
        <time>2020-02-23T11:00:28.000Z</time>
      </trkpt>
      <trkpt lat="43.94148" lon="5.11559">
        <ele>310.6</ele>
        <time>2020-02-23T11:00:44.000Z</time>
      </trkpt>
      <trkpt lat="43.94147" lon="5.11569">
        <ele>311.6</ele>
        <time>2020-02-23T11:00:56.000Z</time>
      </trkpt>
      <trkpt lat="43.94147" lon="5.11572">
        <ele>312.1</ele>
        <time>2020-02-23T11:01:08.000Z</time>
      </trkpt>
      <trkpt lat="43.94149" lon="5.11578">
        <ele>312.6</ele>
        <time>2020-02-23T11:01:21.000Z</time>
      </trkpt>
      <trkpt lat="43.9415" lon="5.11576">
        <ele>313</ele>
        <time>2020-02-23T11:01:35.000Z</time>
      </trkpt>
      <trkpt lat="43.9415" lon="5.11572">
        <ele>312.1</ele>
        <time>2020-02-23T11:01:52.000Z</time>
      </trkpt>
      <trkpt lat="43.94152" lon="5.11575">
        <ele>312.6</ele>
        <time>2020-02-23T11:02:04.000Z</time>
      </trkpt>
      <trkpt lat="43.94151" lon="5.1158">
        <ele>313</ele>
        <time>2020-02-23T11:02:26.000Z</time>
      </trkpt>
      <trkpt lat="43.94149" lon="5.11582">
        <ele>312.6</ele>
        <time>2020-02-23T11:02:54.000Z</time>
      </trkpt>
      <trkpt lat="43.9415" lon="5.1158">
        <ele>313</ele>
        <time>2020-02-23T11:03:11.000Z</time>
      </trkpt>
      <trkpt lat="43.94148" lon="5.11586">
        <ele>314.5</ele>
        <time>2020-02-23T11:03:22.000Z</time>
      </trkpt>
      <trkpt lat="43.94149" lon="5.11604">
        <ele>316.4</ele>
        <time>2020-02-23T11:03:39.000Z</time>
      </trkpt>
      <trkpt lat="43.94149" lon="5.11616">
        <ele>318.8</ele>
        <time>2020-02-23T11:03:53.000Z</time>
      </trkpt>
      <trkpt lat="43.94151" lon="5.11631">
        <ele>320.3</ele>
        <time>2020-02-23T11:04:08.000Z</time>
      </trkpt>
      <trkpt lat="43.9415" lon="5.11644">
        <ele>323.1</ele>
        <time>2020-02-23T11:04:23.000Z</time>
      </trkpt>
      <trkpt lat="43.9415" lon="5.11656">
        <ele>324.1</ele>
        <time>2020-02-23T11:04:37.000Z</time>
      </trkpt>
      <trkpt lat="43.94151" lon="5.11665">
        <ele>326</ele>
        <time>2020-02-23T11:04:52.000Z</time>
      </trkpt>
      <trkpt lat="43.94153" lon="5.11671">
        <ele>328</ele>
        <time>2020-02-23T11:05:05.000Z</time>
      </trkpt>
      <trkpt lat="43.94153" lon="5.11686">
        <ele>329.4</ele>
        <time>2020-02-23T11:05:18.000Z</time>
      </trkpt>
      <trkpt lat="43.94156" lon="5.11703">
        <ele>331.3</ele>
        <time>2020-02-23T11:05:34.000Z</time>
      </trkpt>
      <trkpt lat="43.94164" lon="5.11715">
        <ele>332.8</ele>
        <time>2020-02-23T11:05:49.000Z</time>
      </trkpt>
      <trkpt lat="43.94171" lon="5.11718">
        <ele>333.2</ele>
        <time>2020-02-23T11:05:59.000Z</time>
      </trkpt>
      <trkpt lat="43.94184" lon="5.11729">
        <ele>334.2</ele>
        <time>2020-02-23T11:06:13.000Z</time>
      </trkpt>
      <trkpt lat="43.94194" lon="5.11739">
        <ele>334.2</ele>
        <time>2020-02-23T11:06:26.000Z</time>
      </trkpt>
      <trkpt lat="43.94208" lon="5.11747">
        <ele>335.6</ele>
        <time>2020-02-23T11:06:42.000Z</time>
      </trkpt>
      <trkpt lat="43.94221" lon="5.11757">
        <ele>336.1</ele>
        <time>2020-02-23T11:06:59.000Z</time>
      </trkpt>
      <trkpt lat="43.94229" lon="5.11771">
        <ele>337.6</ele>
        <time>2020-02-23T11:07:16.000Z</time>
      </trkpt>
      <trkpt lat="43.94234" lon="5.11782">
        <ele>339.5</ele>
        <time>2020-02-23T11:07:30.000Z</time>
      </trkpt>
      <trkpt lat="43.94243" lon="5.11795">
        <ele>340.9</ele>
        <time>2020-02-23T11:07:45.000Z</time>
      </trkpt>
      <trkpt lat="43.94248" lon="5.1181">
        <ele>342.9</ele>
        <time>2020-02-23T11:08:01.000Z</time>
      </trkpt>
      <trkpt lat="43.94247" lon="5.11822">
        <ele>344.3</ele>
        <time>2020-02-23T11:08:17.000Z</time>
      </trkpt>
      <trkpt lat="43.9424" lon="5.1183">
        <ele>346.7</ele>
        <time>2020-02-23T11:08:33.000Z</time>
      </trkpt>
      <trkpt lat="43.94234" lon="5.11842">
        <ele>348.1</ele>
        <time>2020-02-23T11:08:49.000Z</time>
      </trkpt>
      <trkpt lat="43.94228" lon="5.11853">
        <ele>350.1</ele>
        <time>2020-02-23T11:09:05.000Z</time>
      </trkpt>
      <trkpt lat="43.94221" lon="5.11862">
        <ele>351.5</ele>
        <time>2020-02-23T11:09:21.000Z</time>
      </trkpt>
      <trkpt lat="43.94216" lon="5.11874">
        <ele>353.4</ele>
        <time>2020-02-23T11:09:37.000Z</time>
      </trkpt>
      <trkpt lat="43.9421" lon="5.11882">
        <ele>353.4</ele>
        <time>2020-02-23T11:09:49.000Z</time>
      </trkpt>
      <trkpt lat="43.9421" lon="5.11883">
        <ele>353.9</ele>
        <time>2020-02-23T11:10:04.000Z</time>
      </trkpt>
      <trkpt lat="43.94209" lon="5.11883">
        <ele>353.9</ele>
        <time>2020-02-23T11:10:25.000Z</time>
      </trkpt>
      <trkpt lat="43.94211" lon="5.11884">
        <ele>353.9</ele>
        <time>2020-02-23T11:10:56.000Z</time>
      </trkpt>
      <trkpt lat="43.94214" lon="5.11885">
        <ele>353.9</ele>
        <time>2020-02-23T11:11:13.000Z</time>
      </trkpt>
      <trkpt lat="43.94212" lon="5.11885">
        <ele>353.9</ele>
        <time>2020-02-23T11:11:33.000Z</time>
      </trkpt>
      <trkpt lat="43.94211" lon="5.11889">
        <ele>353.4</ele>
        <time>2020-02-23T11:11:37.000Z</time>
      </trkpt>
      <trkpt lat="43.94214" lon="5.11908">
        <ele>352</ele>
        <time>2020-02-23T11:11:52.000Z</time>
      </trkpt>
      <trkpt lat="43.94219" lon="5.11931">
        <ele>350.5</ele>
        <time>2020-02-23T11:12:09.000Z</time>
      </trkpt>
      <trkpt lat="43.94218" lon="5.11948">
        <ele>348.1</ele>
        <time>2020-02-23T11:12:23.000Z</time>
      </trkpt>
      <trkpt lat="43.94222" lon="5.11972">
        <ele>345.3</ele>
        <time>2020-02-23T11:12:39.000Z</time>
      </trkpt>
      <trkpt lat="43.94222" lon="5.11992">
        <ele>342.4</ele>
        <time>2020-02-23T11:12:54.000Z</time>
      </trkpt>
      <trkpt lat="43.94229" lon="5.12002">
        <ele>342.4</ele>
        <time>2020-02-23T11:13:05.000Z</time>
      </trkpt>
      <trkpt lat="43.94237" lon="5.12019">
        <ele>343.3</ele>
        <time>2020-02-23T11:13:21.000Z</time>
      </trkpt>
      <trkpt lat="43.9424" lon="5.12041">
        <ele>343.3</ele>
        <time>2020-02-23T11:13:37.000Z</time>
      </trkpt>
      <trkpt lat="43.94235" lon="5.12058">
        <ele>343.8</ele>
        <time>2020-02-23T11:13:51.000Z</time>
      </trkpt>
      <trkpt lat="43.94234" lon="5.12061">
        <ele>344.3</ele>
        <time>2020-02-23T11:13:54.000Z</time>
      </trkpt>
      <trkpt lat="43.94231" lon="5.12066">
        <ele>343.8</ele>
        <time>2020-02-23T11:13:59.000Z</time>
      </trkpt>
      <trkpt lat="43.94226" lon="5.12064">
        <ele>343.3</ele>
        <time>2020-02-23T11:14:04.000Z</time>
      </trkpt>
      <trkpt lat="43.94212" lon="5.12063">
        <ele>342.9</ele>
        <time>2020-02-23T11:14:20.000Z</time>
      </trkpt>
      <trkpt lat="43.94196" lon="5.12078">
        <ele>342.9</ele>
        <time>2020-02-23T11:14:40.000Z</time>
      </trkpt>
      <trkpt lat="43.94192" lon="5.12086">
        <ele>343.8</ele>
        <time>2020-02-23T11:14:48.000Z</time>
      </trkpt>
      <trkpt lat="43.94185" lon="5.12097">
        <ele>344.8</ele>
        <time>2020-02-23T11:15:03.000Z</time>
      </trkpt>
      <trkpt lat="43.9418" lon="5.12105">
        <ele>345.3</ele>
        <time>2020-02-23T11:15:18.000Z</time>
      </trkpt>
      <trkpt lat="43.94174" lon="5.12111">
        <ele>345.7</ele>
        <time>2020-02-23T11:15:33.000Z</time>
      </trkpt>
      <trkpt lat="43.94171" lon="5.12118">
        <ele>346.7</ele>
        <time>2020-02-23T11:15:49.000Z</time>
      </trkpt>
      <trkpt lat="43.94168" lon="5.12128">
        <ele>348.1</ele>
        <time>2020-02-23T11:16:04.000Z</time>
      </trkpt>
      <trkpt lat="43.94163" lon="5.12134">
        <ele>349.1</ele>
        <time>2020-02-23T11:16:20.000Z</time>
      </trkpt>
      <trkpt lat="43.94158" lon="5.12147">
        <ele>351</ele>
        <time>2020-02-23T11:16:36.000Z</time>
      </trkpt>
      <trkpt lat="43.94151" lon="5.12157">
        <ele>352.5</ele>
        <time>2020-02-23T11:16:54.000Z</time>
      </trkpt>
      <trkpt lat="43.94146" lon="5.12162">
        <ele>353.9</ele>
        <time>2020-02-23T11:17:08.000Z</time>
      </trkpt>
      <trkpt lat="43.94138" lon="5.12163">
        <ele>355.3</ele>
        <time>2020-02-23T11:17:24.000Z</time>
      </trkpt>
      <trkpt lat="43.94128" lon="5.12161">
        <ele>357.3</ele>
        <time>2020-02-23T11:17:42.000Z</time>
      </trkpt>
      <trkpt lat="43.94119" lon="5.12157">
        <ele>358.2</ele>
        <time>2020-02-23T11:17:57.000Z</time>
      </trkpt>
      <trkpt lat="43.94109" lon="5.12148">
        <ele>359.7</ele>
        <time>2020-02-23T11:18:15.000Z</time>
      </trkpt>
      <trkpt lat="43.94096" lon="5.12144">
        <ele>360.6</ele>
        <time>2020-02-23T11:18:34.000Z</time>
      </trkpt>
      <trkpt lat="43.94086" lon="5.12138">
        <ele>361.1</ele>
        <time>2020-02-23T11:18:48.000Z</time>
      </trkpt>
      <trkpt lat="43.94077" lon="5.12132">
        <ele>364</ele>
        <time>2020-02-23T11:19:03.000Z</time>
      </trkpt>
      <trkpt lat="43.94069" lon="5.12125">
        <ele>365</ele>
        <time>2020-02-23T11:19:18.000Z</time>
      </trkpt>
      <trkpt lat="43.94058" lon="5.12118">
        <ele>366.9</ele>
        <time>2020-02-23T11:19:35.000Z</time>
      </trkpt>
      <trkpt lat="43.94046" lon="5.12107">
        <ele>365.9</ele>
        <time>2020-02-23T11:19:52.000Z</time>
      </trkpt>
      <trkpt lat="43.94033" lon="5.12098">
        <ele>365.9</ele>
        <time>2020-02-23T11:20:08.000Z</time>
      </trkpt>
      <trkpt lat="43.94019" lon="5.12089">
        <ele>365.4</ele>
        <time>2020-02-23T11:20:27.000Z</time>
      </trkpt>
      <trkpt lat="43.94013" lon="5.12084">
        <ele>365.9</ele>
        <time>2020-02-23T11:20:34.000Z</time>
      </trkpt>
      <trkpt lat="43.94" lon="5.12078">
        <ele>365.9</ele>
        <time>2020-02-23T11:20:51.000Z</time>
      </trkpt>
      <trkpt lat="43.93988" lon="5.12081">
        <ele>367.8</ele>
        <time>2020-02-23T11:21:07.000Z</time>
      </trkpt>
      <trkpt lat="43.93978" lon="5.12091">
        <ele>368.8</ele>
        <time>2020-02-23T11:21:23.000Z</time>
      </trkpt>
      <trkpt lat="43.9398" lon="5.12099">
        <ele>369.8</ele>
        <time>2020-02-23T11:21:39.000Z</time>
      </trkpt>
      <trkpt lat="43.93984" lon="5.12097">
        <ele>369.8</ele>
        <time>2020-02-23T11:22:08.000Z</time>
      </trkpt>
      <trkpt lat="43.9398" lon="5.121">
        <ele>369.8</ele>
        <time>2020-02-23T11:22:29.000Z</time>
      </trkpt>
      <trkpt lat="43.93982" lon="5.12099">
        <ele>370.2</ele>
        <time>2020-02-23T11:22:45.000Z</time>
      </trkpt>
      <trkpt lat="43.9398" lon="5.12101">
        <ele>369.8</ele>
        <time>2020-02-23T11:23:17.000Z</time>
      </trkpt>
      <trkpt lat="43.93983" lon="5.12102">
        <ele>370.2</ele>
        <time>2020-02-23T11:23:41.000Z</time>
      </trkpt>
      <trkpt lat="43.93975" lon="5.12096">
        <ele>369.3</ele>
        <time>2020-02-23T11:24:01.000Z</time>
      </trkpt>
      <trkpt lat="43.93964" lon="5.1209">
        <ele>369.3</ele>
        <time>2020-02-23T11:24:16.000Z</time>
      </trkpt>
      <trkpt lat="43.93963" lon="5.12087">
        <ele>369.3</ele>
        <time>2020-02-23T11:24:28.000Z</time>
      </trkpt>
      <trkpt lat="43.93969" lon="5.12091">
        <ele>368.8</ele>
        <time>2020-02-23T11:24:34.000Z</time>
      </trkpt>
      <trkpt lat="43.9398" lon="5.12092">
        <ele>369.3</ele>
        <time>2020-02-23T11:24:48.000Z</time>
      </trkpt>
      <trkpt lat="43.93982" lon="5.12088">
        <ele>368.8</ele>
        <time>2020-02-23T11:24:52.000Z</time>
      </trkpt>
      <trkpt lat="43.93985" lon="5.12084">
        <ele>368.3</ele>
        <time>2020-02-23T11:24:56.000Z</time>
      </trkpt>
      <trkpt lat="43.94001" lon="5.1208">
        <ele>366.4</ele>
        <time>2020-02-23T11:25:12.000Z</time>
      </trkpt>
      <trkpt lat="43.94018" lon="5.1209">
        <ele>365.9</ele>
        <time>2020-02-23T11:25:29.000Z</time>
      </trkpt>
      <trkpt lat="43.94036" lon="5.12103">
        <ele>366.4</ele>
        <time>2020-02-23T11:25:46.000Z</time>
      </trkpt>
      <trkpt lat="43.94056" lon="5.12118">
        <ele>366.9</ele>
        <time>2020-02-23T11:26:05.000Z</time>
      </trkpt>
      <trkpt lat="43.94047" lon="5.12108">
        <ele>366.4</ele>
        <time>2020-02-23T11:26:18.000Z</time>
      </trkpt>
      <trkpt lat="43.9404" lon="5.12104">
        <ele>366.4</ele>
        <time>2020-02-23T11:26:27.000Z</time>
      </trkpt>
      <trkpt lat="43.94024" lon="5.12092">
        <ele>365.9</ele>
        <time>2020-02-23T11:26:46.000Z</time>
      </trkpt>
      <trkpt lat="43.9401" lon="5.1208">
        <ele>365.4</ele>
        <time>2020-02-23T11:27:03.000Z</time>
      </trkpt>
      <trkpt lat="43.93997" lon="5.12076">
        <ele>366.9</ele>
        <time>2020-02-23T11:27:19.000Z</time>
      </trkpt>
      <trkpt lat="43.93987" lon="5.12081">
        <ele>367.8</ele>
        <time>2020-02-23T11:27:34.000Z</time>
      </trkpt>
      <trkpt lat="43.93981" lon="5.12085">
        <ele>368.3</ele>
        <time>2020-02-23T11:27:53.000Z</time>
      </trkpt>
      <trkpt lat="43.93977" lon="5.12097">
        <ele>369.8</ele>
        <time>2020-02-23T11:28:07.000Z</time>
      </trkpt>
      <trkpt lat="43.93966" lon="5.12091">
        <ele>369.3</ele>
        <time>2020-02-23T11:28:21.000Z</time>
      </trkpt>
      <trkpt lat="43.93961" lon="5.12087">
        <ele>368.3</ele>
        <time>2020-02-23T11:28:37.000Z</time>
      </trkpt>
      <trkpt lat="43.93958" lon="5.12086">
        <ele>368.8</ele>
        <time>2020-02-23T11:28:46.000Z</time>
      </trkpt>
      <trkpt lat="43.93948" lon="5.1208">
        <ele>367.8</ele>
        <time>2020-02-23T11:28:58.000Z</time>
      </trkpt>
      <trkpt lat="43.93929" lon="5.12069">
        <ele>365.4</ele>
        <time>2020-02-23T11:29:16.000Z</time>
      </trkpt>
      <trkpt lat="43.93916" lon="5.12061">
        <ele>365</ele>
        <time>2020-02-23T11:29:30.000Z</time>
      </trkpt>
      <trkpt lat="43.93908" lon="5.12059">
        <ele>364</ele>
        <time>2020-02-23T11:29:46.000Z</time>
      </trkpt>
      <trkpt lat="43.93894" lon="5.12053">
        <ele>363.5</ele>
        <time>2020-02-23T11:30:03.000Z</time>
      </trkpt>
      <trkpt lat="43.93888" lon="5.12055">
        <ele>363</ele>
        <time>2020-02-23T11:30:16.000Z</time>
      </trkpt>
      <trkpt lat="43.9388" lon="5.12052">
        <ele>362.5</ele>
        <time>2020-02-23T11:30:29.000Z</time>
      </trkpt>
      <trkpt lat="43.93883" lon="5.12048">
        <ele>362.1</ele>
        <time>2020-02-23T11:30:41.000Z</time>
      </trkpt>
      <trkpt lat="43.93891" lon="5.12066">
        <ele>364</ele>
        <time>2020-02-23T11:33:36.000Z</time>
      </trkpt>
      <trkpt lat="43.9389" lon="5.12068">
        <ele>367.4</ele>
        <time>2020-02-23T11:33:57.000Z</time>
      </trkpt>
      <trkpt lat="43.93889" lon="5.12073">
        <ele>370.7</ele>
        <time>2020-02-23T11:34:22.000Z</time>
      </trkpt>
      <trkpt lat="43.93889" lon="5.12076">
        <ele>373.6</ele>
        <time>2020-02-23T11:34:42.000Z</time>
      </trkpt>
      <trkpt lat="43.93889" lon="5.12076">
        <ele>376.5</ele>
        <time>2020-02-23T11:35:05.000Z</time>
      </trkpt>
      <trkpt lat="43.93889" lon="5.12075">
        <ele>377.5</ele>
        <time>2020-02-23T11:35:27.000Z</time>
      </trkpt>
      <trkpt lat="43.93885" lon="5.12061">
        <ele>380.8</ele>
        <time>2020-02-23T12:14:19.000Z</time>
      </trkpt>
      <trkpt lat="43.93883" lon="5.12063">
        <ele>380.3</ele>
        <time>2020-02-23T12:14:20.000Z</time>
      </trkpt>
      <trkpt lat="43.93881" lon="5.12065">
        <ele>377</ele>
        <time>2020-02-23T12:14:31.000Z</time>
      </trkpt>
      <trkpt lat="43.93881" lon="5.12066">
        <ele>374.1</ele>
        <time>2020-02-23T12:14:36.000Z</time>
      </trkpt>
      <trkpt lat="43.93882" lon="5.12065">
        <ele>370.7</ele>
        <time>2020-02-23T12:14:44.000Z</time>
      </trkpt>
      <trkpt lat="43.93883" lon="5.12065">
        <ele>367.4</ele>
        <time>2020-02-23T12:14:56.000Z</time>
      </trkpt>
      <trkpt lat="43.93884" lon="5.12064">
        <ele>364.5</ele>
        <time>2020-02-23T12:15:11.000Z</time>
      </trkpt>
      <trkpt lat="43.93882" lon="5.12069">
        <ele>362.5</ele>
        <time>2020-02-23T12:15:36.000Z</time>
      </trkpt>
      <trkpt lat="43.93881" lon="5.1206">
        <ele>361.6</ele>
        <time>2020-02-23T12:15:50.000Z</time>
      </trkpt>
      <trkpt lat="43.93883" lon="5.12048">
        <ele>361.1</ele>
        <time>2020-02-23T12:16:04.000Z</time>
      </trkpt>
      <trkpt lat="43.93885" lon="5.1204">
        <ele>360.1</ele>
        <time>2020-02-23T12:16:18.000Z</time>
      </trkpt>
      <trkpt lat="43.93884" lon="5.12041">
        <ele>360.6</ele>
        <time>2020-02-23T12:16:38.000Z</time>
      </trkpt>
      <trkpt lat="43.93881" lon="5.12037">
        <ele>360.1</ele>
        <time>2020-02-23T12:16:56.000Z</time>
      </trkpt>
      <trkpt lat="43.93876" lon="5.12038">
        <ele>360.1</ele>
        <time>2020-02-23T12:17:04.000Z</time>
      </trkpt>
      <trkpt lat="43.93864" lon="5.12045">
        <ele>359.7</ele>
        <time>2020-02-23T12:17:18.000Z</time>
      </trkpt>
      <trkpt lat="43.93862" lon="5.12046">
        <ele>359.7</ele>
        <time>2020-02-23T12:17:20.000Z</time>
      </trkpt>
      <trkpt lat="43.93844" lon="5.12053">
        <ele>358.7</ele>
        <time>2020-02-23T12:17:40.000Z</time>
      </trkpt>
      <trkpt lat="43.9383" lon="5.1206">
        <ele>357.8</ele>
        <time>2020-02-23T12:17:56.000Z</time>
      </trkpt>
      <trkpt lat="43.93816" lon="5.12063">
        <ele>355.8</ele>
        <time>2020-02-23T12:18:11.000Z</time>
      </trkpt>
      <trkpt lat="43.93806" lon="5.12065">
        <ele>355.3</ele>
        <time>2020-02-23T12:18:26.000Z</time>
      </trkpt>
      <trkpt lat="43.93804" lon="5.12064">
        <ele>354.9</ele>
        <time>2020-02-23T12:18:38.000Z</time>
      </trkpt>
      <trkpt lat="43.93799" lon="5.12068">
        <ele>354.9</ele>
        <time>2020-02-23T12:18:56.000Z</time>
      </trkpt>
      <trkpt lat="43.93797" lon="5.12069">
        <ele>354.9</ele>
        <time>2020-02-23T12:19:11.000Z</time>
      </trkpt>
      <trkpt lat="43.93792" lon="5.12074">
        <ele>353.9</ele>
        <time>2020-02-23T12:19:27.000Z</time>
      </trkpt>
      <trkpt lat="43.93782" lon="5.12083">
        <ele>352.9</ele>
        <time>2020-02-23T12:19:40.000Z</time>
      </trkpt>
      <trkpt lat="43.93771" lon="5.1209">
        <ele>352</ele>
        <time>2020-02-23T12:19:54.000Z</time>
      </trkpt>
      <trkpt lat="43.93759" lon="5.12105">
        <ele>350.1</ele>
        <time>2020-02-23T12:20:11.000Z</time>
      </trkpt>
      <trkpt lat="43.9375" lon="5.12121">
        <ele>349.6</ele>
        <time>2020-02-23T12:20:27.000Z</time>
      </trkpt>
      <trkpt lat="43.93735" lon="5.1214">
        <ele>349.1</ele>
        <time>2020-02-23T12:20:48.000Z</time>
      </trkpt>
      <trkpt lat="43.93724" lon="5.12153">
        <ele>348.1</ele>
        <time>2020-02-23T12:21:02.000Z</time>
      </trkpt>
      <trkpt lat="43.93713" lon="5.12162">
        <ele>346.7</ele>
        <time>2020-02-23T12:21:16.000Z</time>
      </trkpt>
      <trkpt lat="43.9371" lon="5.12162">
        <ele>346.7</ele>
        <time>2020-02-23T12:21:19.000Z</time>
      </trkpt>
      <trkpt lat="43.937" lon="5.12163">
        <ele>344.8</ele>
        <time>2020-02-23T12:21:31.000Z</time>
      </trkpt>
      <trkpt lat="43.9369" lon="5.12173">
        <ele>343.3</ele>
        <time>2020-02-23T12:21:44.000Z</time>
      </trkpt>
      <trkpt lat="43.93681" lon="5.12184">
        <ele>342.4</ele>
        <time>2020-02-23T12:21:57.000Z</time>
      </trkpt>
      <trkpt lat="43.93666" lon="5.12196">
        <ele>340.9</ele>
        <time>2020-02-23T12:22:12.000Z</time>
      </trkpt>
      <trkpt lat="43.93652" lon="5.12214">
        <ele>339.5</ele>
        <time>2020-02-23T12:22:30.000Z</time>
      </trkpt>
      <trkpt lat="43.93635" lon="5.12227">
        <ele>337.6</ele>
        <time>2020-02-23T12:22:49.000Z</time>
      </trkpt>
      <trkpt lat="43.93624" lon="5.12233">
        <ele>335.6</ele>
        <time>2020-02-23T12:23:03.000Z</time>
      </trkpt>
      <trkpt lat="43.93617" lon="5.12247">
        <ele>334.7</ele>
        <time>2020-02-23T12:23:19.000Z</time>
      </trkpt>
      <trkpt lat="43.93614" lon="5.12255">
        <ele>334.2</ele>
        <time>2020-02-23T12:23:32.000Z</time>
      </trkpt>
      <trkpt lat="43.93605" lon="5.12276">
        <ele>332.3</ele>
        <time>2020-02-23T12:23:49.000Z</time>
      </trkpt>
      <trkpt lat="43.93589" lon="5.1229">
        <ele>329.9</ele>
        <time>2020-02-23T12:24:07.000Z</time>
      </trkpt>
      <trkpt lat="43.93576" lon="5.12307">
        <ele>328</ele>
        <time>2020-02-23T12:24:25.000Z</time>
      </trkpt>
      <trkpt lat="43.93572" lon="5.12314">
        <ele>328</ele>
        <time>2020-02-23T12:24:30.000Z</time>
      </trkpt>
      <trkpt lat="43.93566" lon="5.12319">
        <ele>327.5</ele>
        <time>2020-02-23T12:24:38.000Z</time>
      </trkpt>
      <trkpt lat="43.93553" lon="5.1232">
        <ele>326.5</ele>
        <time>2020-02-23T12:24:54.000Z</time>
      </trkpt>
      <trkpt lat="43.9355" lon="5.12319">
        <ele>326.5</ele>
        <time>2020-02-23T12:25:17.000Z</time>
      </trkpt>
      <trkpt lat="43.93537" lon="5.12326">
        <ele>325.5</ele>
        <time>2020-02-23T12:25:35.000Z</time>
      </trkpt>
      <trkpt lat="43.93533" lon="5.12328">
        <ele>325.5</ele>
        <time>2020-02-23T12:25:49.000Z</time>
      </trkpt>
      <trkpt lat="43.93532" lon="5.12329">
        <ele>325.5</ele>
        <time>2020-02-23T12:26:24.000Z</time>
      </trkpt>
      <trkpt lat="43.9353" lon="5.12331">
        <ele>326</ele>
        <time>2020-02-23T12:26:57.000Z</time>
      </trkpt>
      <trkpt lat="43.93531" lon="5.12329">
        <ele>325.5</ele>
        <time>2020-02-23T12:27:16.000Z</time>
      </trkpt>
      <trkpt lat="43.9352" lon="5.12312">
        <ele>325.1</ele>
        <time>2020-02-23T12:27:32.000Z</time>
      </trkpt>
      <trkpt lat="43.93512" lon="5.12292">
        <ele>324.1</ele>
        <time>2020-02-23T12:27:47.000Z</time>
      </trkpt>
      <trkpt lat="43.93507" lon="5.12268">
        <ele>322.2</ele>
        <time>2020-02-23T12:28:04.000Z</time>
      </trkpt>
      <trkpt lat="43.93495" lon="5.12245">
        <ele>320.7</ele>
        <time>2020-02-23T12:28:23.000Z</time>
      </trkpt>
      <trkpt lat="43.93484" lon="5.12223">
        <ele>318.8</ele>
        <time>2020-02-23T12:28:40.000Z</time>
      </trkpt>
      <trkpt lat="43.93482" lon="5.12218">
        <ele>317.9</ele>
        <time>2020-02-23T12:28:44.000Z</time>
      </trkpt>
      <trkpt lat="43.93461" lon="5.12211">
        <ele>316.4</ele>
        <time>2020-02-23T12:29:03.000Z</time>
      </trkpt>
      <trkpt lat="43.93447" lon="5.12208">
        <ele>315.5</ele>
        <time>2020-02-23T12:29:24.000Z</time>
      </trkpt>
      <trkpt lat="43.93445" lon="5.12202">
        <ele>314.5</ele>
        <time>2020-02-23T12:29:30.000Z</time>
      </trkpt>
      <trkpt lat="43.93451" lon="5.12182">
        <ele>313.5</ele>
        <time>2020-02-23T12:29:44.000Z</time>
      </trkpt>
      <trkpt lat="43.9346" lon="5.12159">
        <ele>312.1</ele>
        <time>2020-02-23T12:30:02.000Z</time>
      </trkpt>
      <trkpt lat="43.93465" lon="5.12133">
        <ele>311.6</ele>
        <time>2020-02-23T12:30:19.000Z</time>
      </trkpt>
      <trkpt lat="43.93468" lon="5.12107">
        <ele>310.6</ele>
        <time>2020-02-23T12:30:35.000Z</time>
      </trkpt>
      <trkpt lat="43.93466" lon="5.12073">
        <ele>310.2</ele>
        <time>2020-02-23T12:30:56.000Z</time>
      </trkpt>
      <trkpt lat="43.93457" lon="5.12044">
        <ele>309.2</ele>
        <time>2020-02-23T12:31:17.000Z</time>
      </trkpt>
      <trkpt lat="43.93443" lon="5.12024">
        <ele>308.7</ele>
        <time>2020-02-23T12:31:35.000Z</time>
      </trkpt>
      <trkpt lat="43.93428" lon="5.12003">
        <ele>307.8</ele>
        <time>2020-02-23T12:31:54.000Z</time>
      </trkpt>
      <trkpt lat="43.93423" lon="5.11995">
        <ele>307.8</ele>
        <time>2020-02-23T12:32:09.000Z</time>
      </trkpt>
      <trkpt lat="43.93423" lon="5.11991">
        <ele>307.8</ele>
        <time>2020-02-23T12:32:25.000Z</time>
      </trkpt>
      <trkpt lat="43.9342" lon="5.11985">
        <ele>308.2</ele>
        <time>2020-02-23T12:32:40.000Z</time>
      </trkpt>
      <trkpt lat="43.93417" lon="5.11984">
        <ele>308.2</ele>
        <time>2020-02-23T12:32:55.000Z</time>
      </trkpt>
      <trkpt lat="43.93413" lon="5.11979">
        <ele>308.7</ele>
        <time>2020-02-23T12:33:10.000Z</time>
      </trkpt>
      <trkpt lat="43.93412" lon="5.11984">
        <ele>308.7</ele>
        <time>2020-02-23T12:33:36.000Z</time>
      </trkpt>
      <trkpt lat="43.93407" lon="5.11973">
        <ele>308.7</ele>
        <time>2020-02-23T12:33:52.000Z</time>
      </trkpt>
      <trkpt lat="43.93397" lon="5.11965">
        <ele>309.7</ele>
        <time>2020-02-23T12:34:09.000Z</time>
      </trkpt>
      <trkpt lat="43.93384" lon="5.11955">
        <ele>309.2</ele>
        <time>2020-02-23T12:34:25.000Z</time>
      </trkpt>
      <trkpt lat="43.93371" lon="5.11941">
        <ele>309.2</ele>
        <time>2020-02-23T12:34:42.000Z</time>
      </trkpt>
      <trkpt lat="43.93358" lon="5.11929">
        <ele>308.2</ele>
        <time>2020-02-23T12:34:59.000Z</time>
      </trkpt>
      <trkpt lat="43.93347" lon="5.11919">
        <ele>307.3</ele>
        <time>2020-02-23T12:35:13.000Z</time>
      </trkpt>
      <trkpt lat="43.93337" lon="5.11903">
        <ele>307.3</ele>
        <time>2020-02-23T12:35:28.000Z</time>
      </trkpt>
      <trkpt lat="43.93325" lon="5.11886">
        <ele>307.3</ele>
        <time>2020-02-23T12:35:46.000Z</time>
      </trkpt>
      <trkpt lat="43.93315" lon="5.11869">
        <ele>306.3</ele>
        <time>2020-02-23T12:36:03.000Z</time>
      </trkpt>
      <trkpt lat="43.93304" lon="5.11857">
        <ele>305.4</ele>
        <time>2020-02-23T12:36:19.000Z</time>
      </trkpt>
      <trkpt lat="43.93297" lon="5.11845">
        <ele>304.9</ele>
        <time>2020-02-23T12:36:34.000Z</time>
      </trkpt>
      <trkpt lat="43.93297" lon="5.11831">
        <ele>303.9</ele>
        <time>2020-02-23T12:36:47.000Z</time>
      </trkpt>
      <trkpt lat="43.933" lon="5.11814">
        <ele>301.5</ele>
        <time>2020-02-23T12:37:03.000Z</time>
      </trkpt>
      <trkpt lat="43.93311" lon="5.11804">
        <ele>300.1</ele>
        <time>2020-02-23T12:37:19.000Z</time>
      </trkpt>
      <trkpt lat="43.93323" lon="5.11791">
        <ele>298.6</ele>
        <time>2020-02-23T12:37:36.000Z</time>
      </trkpt>
      <trkpt lat="43.93334" lon="5.11777">
        <ele>297.7</ele>
        <time>2020-02-23T12:37:52.000Z</time>
      </trkpt>
      <trkpt lat="43.93334" lon="5.11768">
        <ele>295.3</ele>
        <time>2020-02-23T12:38:03.000Z</time>
      </trkpt>
      <trkpt lat="43.93321" lon="5.11773">
        <ele>292.9</ele>
        <time>2020-02-23T12:38:18.000Z</time>
      </trkpt>
      <trkpt lat="43.93311" lon="5.11774">
        <ele>290.9</ele>
        <time>2020-02-23T12:38:32.000Z</time>
      </trkpt>
      <trkpt lat="43.93299" lon="5.11774">
        <ele>288</ele>
        <time>2020-02-23T12:38:46.000Z</time>
      </trkpt>
      <trkpt lat="43.93294" lon="5.11767">
        <ele>285.6</ele>
        <time>2020-02-23T12:39:01.000Z</time>
      </trkpt>
      <trkpt lat="43.93282" lon="5.11767">
        <ele>282.8</ele>
        <time>2020-02-23T12:39:15.000Z</time>
      </trkpt>
      <trkpt lat="43.93274" lon="5.11772">
        <ele>281.3</ele>
        <time>2020-02-23T12:39:30.000Z</time>
      </trkpt>
      <trkpt lat="43.93276" lon="5.11764">
        <ele>278.4</ele>
        <time>2020-02-23T12:39:43.000Z</time>
      </trkpt>
      <trkpt lat="43.93277" lon="5.11762">
        <ele>278</ele>
        <time>2020-02-23T12:39:46.000Z</time>
      </trkpt>
      <trkpt lat="43.93284" lon="5.11751">
        <ele>275.6</ele>
        <time>2020-02-23T12:40:02.000Z</time>
      </trkpt>
      <trkpt lat="43.9329" lon="5.1174">
        <ele>273.1</ele>
        <time>2020-02-23T12:40:17.000Z</time>
      </trkpt>
      <trkpt lat="43.93295" lon="5.1173">
        <ele>270.8</ele>
        <time>2020-02-23T12:40:32.000Z</time>
      </trkpt>
      <trkpt lat="43.93301" lon="5.11718">
        <ele>267.9</ele>
        <time>2020-02-23T12:40:46.000Z</time>
      </trkpt>
      <trkpt lat="43.93305" lon="5.11706">
        <ele>264.5</ele>
        <time>2020-02-23T12:41:01.000Z</time>
      </trkpt>
      <trkpt lat="43.93313" lon="5.11698">
        <ele>262.1</ele>
        <time>2020-02-23T12:41:16.000Z</time>
      </trkpt>
      <trkpt lat="43.93324" lon="5.11688">
        <ele>260.2</ele>
        <time>2020-02-23T12:41:30.000Z</time>
      </trkpt>
      <trkpt lat="43.93333" lon="5.11678">
        <ele>258.3</ele>
        <time>2020-02-23T12:41:45.000Z</time>
      </trkpt>
      <trkpt lat="43.93348" lon="5.1167">
        <ele>256.3</ele>
        <time>2020-02-23T12:42:04.000Z</time>
      </trkpt>
      <trkpt lat="43.9336" lon="5.1166">
        <ele>254.9</ele>
        <time>2020-02-23T12:42:18.000Z</time>
      </trkpt>
      <trkpt lat="43.93374" lon="5.11645">
        <ele>253</ele>
        <time>2020-02-23T12:42:37.000Z</time>
      </trkpt>
      <trkpt lat="43.93384" lon="5.11633">
        <ele>251.5</ele>
        <time>2020-02-23T12:42:50.000Z</time>
      </trkpt>
      <trkpt lat="43.93391" lon="5.11621">
        <ele>249.6</ele>
        <time>2020-02-23T12:43:05.000Z</time>
      </trkpt>
      <trkpt lat="43.93395" lon="5.11609">
        <ele>248.2</ele>
        <time>2020-02-23T12:43:17.000Z</time>
      </trkpt>
      <trkpt lat="43.93404" lon="5.11595">
        <ele>247.7</ele>
        <time>2020-02-23T12:43:33.000Z</time>
      </trkpt>
      <trkpt lat="43.93403" lon="5.11588">
        <ele>248.2</ele>
        <time>2020-02-23T12:43:51.000Z</time>
      </trkpt>
      <trkpt lat="43.93403" lon="5.11578">
        <ele>248.2</ele>
        <time>2020-02-23T12:44:28.000Z</time>
      </trkpt>
      <trkpt lat="43.93402" lon="5.11575">
        <ele>248.2</ele>
        <time>2020-02-23T12:45:12.000Z</time>
      </trkpt>
      <trkpt lat="43.93405" lon="5.11581">
        <ele>248.2</ele>
        <time>2020-02-23T12:45:53.000Z</time>
      </trkpt>
      <trkpt lat="43.93403" lon="5.11589">
        <ele>248.2</ele>
        <time>2020-02-23T12:46:05.000Z</time>
      </trkpt>
      <trkpt lat="43.93395" lon="5.11593">
        <ele>247.7</ele>
        <time>2020-02-23T12:46:32.000Z</time>
      </trkpt>
      <trkpt lat="43.93398" lon="5.11584">
        <ele>247.7</ele>
        <time>2020-02-23T12:46:53.000Z</time>
      </trkpt>
      <trkpt lat="43.93399" lon="5.11582">
        <ele>247.2</ele>
        <time>2020-02-23T12:47:15.000Z</time>
      </trkpt>
      <trkpt lat="43.93399" lon="5.11584">
        <ele>246.2</ele>
        <time>2020-02-23T12:47:32.000Z</time>
      </trkpt>
      <trkpt lat="43.93404" lon="5.11584">
        <ele>246.7</ele>
        <time>2020-02-23T12:47:55.000Z</time>
      </trkpt>
      <trkpt lat="43.93399" lon="5.11589">
        <ele>246.7</ele>
        <time>2020-02-23T12:48:11.000Z</time>
      </trkpt>
      <trkpt lat="43.93402" lon="5.11585">
        <ele>246.7</ele>
        <time>2020-02-23T12:48:32.000Z</time>
      </trkpt>
      <trkpt lat="43.93405" lon="5.11582">
        <ele>246.7</ele>
        <time>2020-02-23T12:48:45.000Z</time>
      </trkpt>
      <trkpt lat="43.93408" lon="5.11582">
        <ele>247.7</ele>
        <time>2020-02-23T12:49:03.000Z</time>
      </trkpt>
      <trkpt lat="43.93407" lon="5.11578">
        <ele>247.2</ele>
        <time>2020-02-23T12:49:19.000Z</time>
      </trkpt>
      <trkpt lat="43.93412" lon="5.11585">
        <ele>248.6</ele>
        <time>2020-02-23T12:49:35.000Z</time>
      </trkpt>
      <trkpt lat="43.93417" lon="5.11584">
        <ele>248.6</ele>
        <time>2020-02-23T12:49:52.000Z</time>
      </trkpt>
      <trkpt lat="43.93411" lon="5.1159">
        <ele>248.6</ele>
        <time>2020-02-23T12:50:07.000Z</time>
      </trkpt>
      <trkpt lat="43.9341" lon="5.11588">
        <ele>248.6</ele>
        <time>2020-02-23T12:50:25.000Z</time>
      </trkpt>
      <trkpt lat="43.93409" lon="5.11588">
        <ele>248.2</ele>
        <time>2020-02-23T12:50:41.000Z</time>
      </trkpt>
      <trkpt lat="43.93413" lon="5.11579">
        <ele>246.7</ele>
        <time>2020-02-23T12:50:55.000Z</time>
      </trkpt>
      <trkpt lat="43.93415" lon="5.11573">
        <ele>246.7</ele>
        <time>2020-02-23T12:51:13.000Z</time>
      </trkpt>
      <trkpt lat="43.93423" lon="5.11571">
        <ele>246.2</ele>
        <time>2020-02-23T12:51:29.000Z</time>
      </trkpt>
      <trkpt lat="43.93427" lon="5.11569">
        <ele>245.8</ele>
        <time>2020-02-23T12:51:42.000Z</time>
      </trkpt>
      <trkpt lat="43.93433" lon="5.11568">
        <ele>245.8</ele>
        <time>2020-02-23T12:51:54.000Z</time>
      </trkpt>
      <trkpt lat="43.93446" lon="5.11563">
        <ele>244.8</ele>
        <time>2020-02-23T12:52:10.000Z</time>
      </trkpt>
      <trkpt lat="43.93456" lon="5.1156">
        <ele>243.4</ele>
        <time>2020-02-23T12:52:23.000Z</time>
      </trkpt>
      <trkpt lat="43.93462" lon="5.11557">
        <ele>242.9</ele>
        <time>2020-02-23T12:52:35.000Z</time>
      </trkpt>
      <trkpt lat="43.93472" lon="5.11554">
        <ele>241.9</ele>
        <time>2020-02-23T12:52:48.000Z</time>
      </trkpt>
      <trkpt lat="43.93476" lon="5.11551">
        <ele>241.9</ele>
        <time>2020-02-23T12:53:03.000Z</time>
      </trkpt>
      <trkpt lat="43.93478" lon="5.11546">
        <ele>241.9</ele>
        <time>2020-02-23T12:53:26.000Z</time>
      </trkpt>
      <trkpt lat="43.93475" lon="5.11548">
        <ele>241.9</ele>
        <time>2020-02-23T12:53:50.000Z</time>
      </trkpt>
      <trkpt lat="43.93482" lon="5.11553">
        <ele>242.4</ele>
        <time>2020-02-23T12:54:04.000Z</time>
      </trkpt>
      <trkpt lat="43.9349" lon="5.11552">
        <ele>242.9</ele>
        <time>2020-02-23T12:54:17.000Z</time>
      </trkpt>
      <trkpt lat="43.93496" lon="5.11542">
        <ele>243.8</ele>
        <time>2020-02-23T12:54:30.000Z</time>
      </trkpt>
      <trkpt lat="43.93496" lon="5.1153">
        <ele>244.8</ele>
        <time>2020-02-23T12:54:45.000Z</time>
      </trkpt>
      <trkpt lat="43.93493" lon="5.1152">
        <ele>246.2</ele>
        <time>2020-02-23T12:55:01.000Z</time>
      </trkpt>
      <trkpt lat="43.93489" lon="5.11512">
        <ele>248.2</ele>
        <time>2020-02-23T12:55:16.000Z</time>
      </trkpt>
      <trkpt lat="43.93486" lon="5.11499">
        <ele>249.6</ele>
        <time>2020-02-23T12:55:31.000Z</time>
      </trkpt>
      <trkpt lat="43.93479" lon="5.1149">
        <ele>251</ele>
        <time>2020-02-23T12:55:47.000Z</time>
      </trkpt>
      <trkpt lat="43.93473" lon="5.11479">
        <ele>252.5</ele>
        <time>2020-02-23T12:56:03.000Z</time>
      </trkpt>
      <trkpt lat="43.93467" lon="5.11472">
        <ele>253.9</ele>
        <time>2020-02-23T12:56:17.000Z</time>
      </trkpt>
      <trkpt lat="43.93461" lon="5.11463">
        <ele>254.9</ele>
        <time>2020-02-23T12:56:32.000Z</time>
      </trkpt>
      <trkpt lat="43.93453" lon="5.11456">
        <ele>255.9</ele>
        <time>2020-02-23T12:56:47.000Z</time>
      </trkpt>
      <trkpt lat="43.93445" lon="5.11449">
        <ele>257.3</ele>
        <time>2020-02-23T12:57:00.000Z</time>
      </trkpt>
      <trkpt lat="43.93439" lon="5.11443">
        <ele>258.3</ele>
        <time>2020-02-23T12:57:14.000Z</time>
      </trkpt>
      <trkpt lat="43.93432" lon="5.11436">
        <ele>259.2</ele>
        <time>2020-02-23T12:57:28.000Z</time>
      </trkpt>
      <trkpt lat="43.93427" lon="5.1143">
        <ele>260.6</ele>
        <time>2020-02-23T12:57:47.000Z</time>
      </trkpt>
      <trkpt lat="43.93425" lon="5.11423">
        <ele>262.1</ele>
        <time>2020-02-23T12:58:04.000Z</time>
      </trkpt>
      <trkpt lat="43.93427" lon="5.1142">
        <ele>265</ele>
        <time>2020-02-23T12:58:21.000Z</time>
      </trkpt>
      <trkpt lat="43.93427" lon="5.11416">
        <ele>266.4</ele>
        <time>2020-02-23T12:58:37.000Z</time>
      </trkpt>
      <trkpt lat="43.93425" lon="5.11416">
        <ele>266.4</ele>
        <time>2020-02-23T12:58:53.000Z</time>
      </trkpt>
      <trkpt lat="43.93426" lon="5.11418">
        <ele>266.4</ele>
        <time>2020-02-23T12:59:25.000Z</time>
      </trkpt>
      <trkpt lat="43.93428" lon="5.11415">
        <ele>266.4</ele>
        <time>2020-02-23T12:59:48.000Z</time>
      </trkpt>
      <trkpt lat="43.93428" lon="5.11416">
        <ele>266.4</ele>
        <time>2020-02-23T13:00:07.000Z</time>
      </trkpt>
      <trkpt lat="43.93426" lon="5.11415">
        <ele>266.4</ele>
        <time>2020-02-23T13:00:29.000Z</time>
      </trkpt>
      <trkpt lat="43.93426" lon="5.11415">
        <ele>265.9</ele>
        <time>2020-02-23T13:00:57.000Z</time>
      </trkpt>
      <trkpt lat="43.93426" lon="5.11411">
        <ele>265.9</ele>
        <time>2020-02-23T13:01:18.000Z</time>
      </trkpt>
      <trkpt lat="43.93427" lon="5.11414">
        <ele>265.9</ele>
        <time>2020-02-23T13:01:44.000Z</time>
      </trkpt>
      <trkpt lat="43.93425" lon="5.11416">
        <ele>265.9</ele>
        <time>2020-02-23T13:02:10.000Z</time>
      </trkpt>
      <trkpt lat="43.93423" lon="5.11421">
        <ele>265.9</ele>
        <time>2020-02-23T13:02:39.000Z</time>
      </trkpt>
      <trkpt lat="43.93427" lon="5.11421">
        <ele>265.9</ele>
        <time>2020-02-23T13:02:54.000Z</time>
      </trkpt>
      <trkpt lat="43.93431" lon="5.11422">
        <ele>265.5</ele>
        <time>2020-02-23T13:03:05.000Z</time>
      </trkpt>
      <trkpt lat="43.93437" lon="5.11425">
        <ele>264</ele>
        <time>2020-02-23T13:03:17.000Z</time>
      </trkpt>
      <trkpt lat="43.93437" lon="5.11433">
        <ele>262.1</ele>
        <time>2020-02-23T13:03:29.000Z</time>
      </trkpt>
      <trkpt lat="43.9343" lon="5.1144">
        <ele>260.2</ele>
        <time>2020-02-23T13:03:44.000Z</time>
      </trkpt>
      <trkpt lat="43.93424" lon="5.11434">
        <ele>261.1</ele>
        <time>2020-02-23T13:03:59.000Z</time>
      </trkpt>
      <trkpt lat="43.93417" lon="5.11426">
        <ele>262.6</ele>
        <time>2020-02-23T13:04:14.000Z</time>
      </trkpt>
      <trkpt lat="43.93408" lon="5.11421">
        <ele>264</ele>
        <time>2020-02-23T13:04:29.000Z</time>
      </trkpt>
      <trkpt lat="43.93401" lon="5.11417">
        <ele>265</ele>
        <time>2020-02-23T13:04:43.000Z</time>
      </trkpt>
      <trkpt lat="43.93395" lon="5.11412">
        <ele>265.5</ele>
        <time>2020-02-23T13:04:59.000Z</time>
      </trkpt>
      <trkpt lat="43.93387" lon="5.11407">
        <ele>267.4</ele>
        <time>2020-02-23T13:05:14.000Z</time>
      </trkpt>
      <trkpt lat="43.93379" lon="5.11402">
        <ele>269.3</ele>
        <time>2020-02-23T13:05:28.000Z</time>
      </trkpt>
      <trkpt lat="43.93373" lon="5.11397">
        <ele>270.8</ele>
        <time>2020-02-23T13:05:42.000Z</time>
      </trkpt>
      <trkpt lat="43.93367" lon="5.1139">
        <ele>271.2</ele>
        <time>2020-02-23T13:05:55.000Z</time>
      </trkpt>
      <trkpt lat="43.93362" lon="5.11376">
        <ele>269.8</ele>
        <time>2020-02-23T13:06:11.000Z</time>
      </trkpt>
      <trkpt lat="43.93365" lon="5.11359">
        <ele>267.9</ele>
        <time>2020-02-23T13:06:27.000Z</time>
      </trkpt>
      <trkpt lat="43.93368" lon="5.11343">
        <ele>265.5</ele>
        <time>2020-02-23T13:06:40.000Z</time>
      </trkpt>
      <trkpt lat="43.93367" lon="5.11325">
        <ele>264</ele>
        <time>2020-02-23T13:06:55.000Z</time>
      </trkpt>
      <trkpt lat="43.9337" lon="5.11301">
        <ele>261.6</ele>
        <time>2020-02-23T13:07:14.000Z</time>
      </trkpt>
      <trkpt lat="43.93371" lon="5.11295">
        <ele>261.6</ele>
        <time>2020-02-23T13:07:29.000Z</time>
      </trkpt>
      <trkpt lat="43.93369" lon="5.11293">
        <ele>261.1</ele>
        <time>2020-02-23T13:07:57.000Z</time>
      </trkpt>
      <trkpt lat="43.9337" lon="5.11291">
        <ele>261.1</ele>
        <time>2020-02-23T13:08:29.000Z</time>
      </trkpt>
      <trkpt lat="43.93369" lon="5.11289">
        <ele>261.6</ele>
        <time>2020-02-23T13:08:36.000Z</time>
      </trkpt>
      <trkpt lat="43.9337" lon="5.11282">
        <ele>259.7</ele>
        <time>2020-02-23T13:08:48.000Z</time>
      </trkpt>
      <trkpt lat="43.93371" lon="5.11274">
        <ele>258.7</ele>
        <time>2020-02-23T13:09:01.000Z</time>
      </trkpt>
      <trkpt lat="43.93374" lon="5.11266">
        <ele>258.3</ele>
        <time>2020-02-23T13:09:13.000Z</time>
      </trkpt>
      <trkpt lat="43.93374" lon="5.11264">
        <ele>257.8</ele>
        <time>2020-02-23T13:09:15.000Z</time>
      </trkpt>
      <trkpt lat="43.93375" lon="5.11254">
        <ele>256.8</ele>
        <time>2020-02-23T13:09:25.000Z</time>
      </trkpt>
      <trkpt lat="43.93377" lon="5.11245">
        <ele>255.9</ele>
        <time>2020-02-23T13:09:34.000Z</time>
      </trkpt>
      <trkpt lat="43.9338" lon="5.11234">
        <ele>254.4</ele>
        <time>2020-02-23T13:09:44.000Z</time>
      </trkpt>
      <trkpt lat="43.93381" lon="5.11224">
        <ele>253.9</ele>
        <time>2020-02-23T13:09:52.000Z</time>
      </trkpt>
      <trkpt lat="43.93381" lon="5.11224">
        <ele>253.9</ele>
        <time>2020-02-23T13:09:53.000Z</time>
      </trkpt>
      <trkpt lat="43.93381" lon="5.11211">
        <ele>252.5</ele>
        <time>2020-02-23T13:10:03.000Z</time>
      </trkpt>
      <trkpt lat="43.9338" lon="5.11206">
        <ele>252.5</ele>
        <time>2020-02-23T13:10:13.000Z</time>
      </trkpt>
      <trkpt lat="43.93381" lon="5.11194">
        <ele>251.5</ele>
        <time>2020-02-23T13:10:23.000Z</time>
      </trkpt>
      <trkpt lat="43.93382" lon="5.11187">
        <ele>250.6</ele>
        <time>2020-02-23T13:10:30.000Z</time>
      </trkpt>
      <trkpt lat="43.93385" lon="5.11174">
        <ele>250.1</ele>
        <time>2020-02-23T13:10:41.000Z</time>
      </trkpt>
      <trkpt lat="43.93385" lon="5.11165">
        <ele>249.6</ele>
        <time>2020-02-23T13:10:48.000Z</time>
      </trkpt>
      <trkpt lat="43.93386" lon="5.11157">
        <ele>248.6</ele>
        <time>2020-02-23T13:10:54.000Z</time>
      </trkpt>
      <trkpt lat="43.93387" lon="5.11147">
        <ele>248.6</ele>
        <time>2020-02-23T13:11:01.000Z</time>
      </trkpt>
      <trkpt lat="43.93393" lon="5.11133">
        <ele>248.2</ele>
        <time>2020-02-23T13:11:12.000Z</time>
      </trkpt>
      <trkpt lat="43.93399" lon="5.1112">
        <ele>247.2</ele>
        <time>2020-02-23T13:11:23.000Z</time>
      </trkpt>
      <trkpt lat="43.934" lon="5.11118">
        <ele>247.2</ele>
        <time>2020-02-23T13:11:26.000Z</time>
      </trkpt>
      <trkpt lat="43.93406" lon="5.11102">
        <ele>246.7</ele>
        <time>2020-02-23T13:11:38.000Z</time>
      </trkpt>
      <trkpt lat="43.93408" lon="5.11096">
        <ele>246.2</ele>
        <time>2020-02-23T13:11:44.000Z</time>
      </trkpt>
      <trkpt lat="43.93411" lon="5.11089">
        <ele>245.8</ele>
        <time>2020-02-23T13:11:50.000Z</time>
      </trkpt>
      <trkpt lat="43.93416" lon="5.11072">
        <ele>244.8</ele>
        <time>2020-02-23T13:12:03.000Z</time>
      </trkpt>
      <trkpt lat="43.93419" lon="5.11062">
        <ele>244.3</ele>
        <time>2020-02-23T13:12:11.000Z</time>
      </trkpt>
      <trkpt lat="43.93424" lon="5.11043">
        <ele>243.4</ele>
        <time>2020-02-23T13:12:23.000Z</time>
      </trkpt>
      <trkpt lat="43.93424" lon="5.11042">
        <ele>243.4</ele>
        <time>2020-02-23T13:12:25.000Z</time>
      </trkpt>
      <trkpt lat="43.93428" lon="5.11027">
        <ele>242.9</ele>
        <time>2020-02-23T13:12:36.000Z</time>
      </trkpt>
      <trkpt lat="43.93431" lon="5.11017">
        <ele>242.9</ele>
        <time>2020-02-23T13:12:44.000Z</time>
      </trkpt>
      <trkpt lat="43.93434" lon="5.1101">
        <ele>242.4</ele>
        <time>2020-02-23T13:12:49.000Z</time>
      </trkpt>
      <trkpt lat="43.93442" lon="5.10987">
        <ele>241.4</ele>
        <time>2020-02-23T13:13:06.000Z</time>
      </trkpt>
      <trkpt lat="43.93446" lon="5.10968">
        <ele>241.4</ele>
        <time>2020-02-23T13:13:23.000Z</time>
      </trkpt>
      <trkpt lat="43.93447" lon="5.10967">
        <ele>241.4</ele>
        <time>2020-02-23T13:13:40.000Z</time>
      </trkpt>
      <trkpt lat="43.9345" lon="5.10968">
        <ele>241.4</ele>
        <time>2020-02-23T13:13:53.000Z</time>
      </trkpt>
      <trkpt lat="43.93442" lon="5.1096">
        <ele>240.5</ele>
        <time>2020-02-23T13:14:05.000Z</time>
      </trkpt>
      <trkpt lat="43.93437" lon="5.1094">
        <ele>240</ele>
        <time>2020-02-23T13:14:22.000Z</time>
      </trkpt>
      <trkpt lat="43.93435" lon="5.10932">
        <ele>239</ele>
        <time>2020-02-23T13:14:36.000Z</time>
      </trkpt>
      <trkpt lat="43.93441" lon="5.10926">
        <ele>238.1</ele>
        <time>2020-02-23T13:14:48.000Z</time>
      </trkpt>
      <trkpt lat="43.93443" lon="5.10913">
        <ele>236.6</ele>
        <time>2020-02-23T13:15:04.000Z</time>
      </trkpt>
      <trkpt lat="43.9345" lon="5.10896">
        <ele>234.7</ele>
        <time>2020-02-23T13:15:23.000Z</time>
      </trkpt>
      <trkpt lat="43.93461" lon="5.10898">
        <ele>233.3</ele>
        <time>2020-02-23T13:15:41.000Z</time>
      </trkpt>
      <trkpt lat="43.93463" lon="5.109">
        <ele>233.3</ele>
        <time>2020-02-23T13:15:59.000Z</time>
      </trkpt>
      <trkpt lat="43.93477" lon="5.10905">
        <ele>231.3</ele>
        <time>2020-02-23T13:16:14.000Z</time>
      </trkpt>
      <trkpt lat="43.9349" lon="5.10908">
        <ele>228.9</ele>
        <time>2020-02-23T13:16:30.000Z</time>
      </trkpt>
      <trkpt lat="43.93498" lon="5.10907">
        <ele>228</ele>
        <time>2020-02-23T13:16:40.000Z</time>
      </trkpt>
      <trkpt lat="43.93509" lon="5.10907">
        <ele>226.5</ele>
        <time>2020-02-23T13:16:54.000Z</time>
      </trkpt>
      <trkpt lat="43.93519" lon="5.10905">
        <ele>224.6</ele>
        <time>2020-02-23T13:17:08.000Z</time>
      </trkpt>
      <trkpt lat="43.93518" lon="5.10902">
        <ele>224.1</ele>
        <time>2020-02-23T13:17:21.000Z</time>
      </trkpt>
      <trkpt lat="43.93528" lon="5.10894">
        <ele>221.7</ele>
        <time>2020-02-23T13:17:35.000Z</time>
      </trkpt>
      <trkpt lat="43.93533" lon="5.10893">
        <ele>220.3</ele>
        <time>2020-02-23T13:17:50.000Z</time>
      </trkpt>
      <trkpt lat="43.9354" lon="5.10893">
        <ele>218.8</ele>
        <time>2020-02-23T13:18:04.000Z</time>
      </trkpt>
      <trkpt lat="43.93549" lon="5.10893">
        <ele>216.9</ele>
        <time>2020-02-23T13:18:17.000Z</time>
      </trkpt>
      <trkpt lat="43.9356" lon="5.10889">
        <ele>214</ele>
        <time>2020-02-23T13:18:30.000Z</time>
      </trkpt>
      <trkpt lat="43.93562" lon="5.10887">
        <ele>213.1</ele>
        <time>2020-02-23T13:18:33.000Z</time>
      </trkpt>
      <trkpt lat="43.9357" lon="5.10883">
        <ele>211.1</ele>
        <time>2020-02-23T13:18:50.000Z</time>
      </trkpt>
      <trkpt lat="43.93579" lon="5.10885">
        <ele>208.3</ele>
        <time>2020-02-23T13:19:05.000Z</time>
      </trkpt>
      <trkpt lat="43.93589" lon="5.10885">
        <ele>206.3</ele>
        <time>2020-02-23T13:19:22.000Z</time>
      </trkpt>
      <trkpt lat="43.93596" lon="5.10888">
        <ele>204.4</ele>
        <time>2020-02-23T13:19:39.000Z</time>
      </trkpt>
      <trkpt lat="43.93605" lon="5.10885">
        <ele>203</ele>
        <time>2020-02-23T13:19:56.000Z</time>
      </trkpt>
      <trkpt lat="43.93612" lon="5.10883">
        <ele>201.5</ele>
        <time>2020-02-23T13:20:10.000Z</time>
      </trkpt>
      <trkpt lat="43.93621" lon="5.1088">
        <ele>199.6</ele>
        <time>2020-02-23T13:20:26.000Z</time>
      </trkpt>
      <trkpt lat="43.93625" lon="5.10876">
        <ele>199.1</ele>
        <time>2020-02-23T13:20:41.000Z</time>
      </trkpt>
      <trkpt lat="43.93632" lon="5.10874">
        <ele>197.2</ele>
        <time>2020-02-23T13:20:56.000Z</time>
      </trkpt>
      <trkpt lat="43.93639" lon="5.10872">
        <ele>195.8</ele>
        <time>2020-02-23T13:21:10.000Z</time>
      </trkpt>
      <trkpt lat="43.9364" lon="5.10881">
        <ele>196.3</ele>
        <time>2020-02-23T13:21:27.000Z</time>
      </trkpt>
      <trkpt lat="43.93641" lon="5.10873">
        <ele>195.3</ele>
        <time>2020-02-23T13:21:44.000Z</time>
      </trkpt>
      <trkpt lat="43.93648" lon="5.10874">
        <ele>193.4</ele>
        <time>2020-02-23T13:21:58.000Z</time>
      </trkpt>
      <trkpt lat="43.93658" lon="5.10875">
        <ele>191.4</ele>
        <time>2020-02-23T13:22:13.000Z</time>
      </trkpt>
      <trkpt lat="43.93669" lon="5.10874">
        <ele>188.6</ele>
        <time>2020-02-23T13:22:37.000Z</time>
      </trkpt>
      <trkpt lat="43.93677" lon="5.10878">
        <ele>186.1</ele>
        <time>2020-02-23T13:22:59.000Z</time>
      </trkpt>
      <trkpt lat="43.93688" lon="5.10875">
        <ele>185.7</ele>
        <time>2020-02-23T13:23:16.000Z</time>
      </trkpt>
      <trkpt lat="43.93689" lon="5.10876">
        <ele>185.2</ele>
        <time>2020-02-23T13:23:21.000Z</time>
      </trkpt>
      <trkpt lat="43.93692" lon="5.10869">
        <ele>182.8</ele>
        <time>2020-02-23T13:23:39.000Z</time>
      </trkpt>
      <trkpt lat="43.93706" lon="5.10872">
        <ele>179.9</ele>
        <time>2020-02-23T13:23:59.000Z</time>
      </trkpt>
      <trkpt lat="43.93726" lon="5.10874">
        <ele>178.9</ele>
        <time>2020-02-23T13:24:14.000Z</time>
      </trkpt>
      <trkpt lat="43.9373" lon="5.10877">
        <ele>180.9</ele>
        <time>2020-02-23T13:24:29.000Z</time>
      </trkpt>
      <trkpt lat="43.93734" lon="5.10877">
        <ele>181.4</ele>
        <time>2020-02-23T13:24:46.000Z</time>
      </trkpt>
      <trkpt lat="43.93744" lon="5.10864">
        <ele>183.8</ele>
        <time>2020-02-23T13:25:05.000Z</time>
      </trkpt>
      <trkpt lat="43.9375" lon="5.10853">
        <ele>187.1</ele>
        <time>2020-02-23T13:25:24.000Z</time>
      </trkpt>
      <trkpt lat="43.93745" lon="5.1084">
        <ele>188.6</ele>
        <time>2020-02-23T13:25:40.000Z</time>
      </trkpt>
      <trkpt lat="43.9374" lon="5.10832">
        <ele>190.5</ele>
        <time>2020-02-23T13:25:55.000Z</time>
      </trkpt>
      <trkpt lat="43.93738" lon="5.10822">
        <ele>191.9</ele>
        <time>2020-02-23T13:26:13.000Z</time>
      </trkpt>
      <trkpt lat="43.93734" lon="5.10811">
        <ele>192.9</ele>
        <time>2020-02-23T13:26:30.000Z</time>
      </trkpt>
      <trkpt lat="43.93728" lon="5.10799">
        <ele>194.8</ele>
        <time>2020-02-23T13:26:48.000Z</time>
      </trkpt>
      <trkpt lat="43.93723" lon="5.10784">
        <ele>195.3</ele>
        <time>2020-02-23T13:27:07.000Z</time>
      </trkpt>
      <trkpt lat="43.93715" lon="5.10774">
        <ele>196.7</ele>
        <time>2020-02-23T13:27:25.000Z</time>
      </trkpt>
      <trkpt lat="43.93715" lon="5.10773">
        <ele>197.2</ele>
        <time>2020-02-23T13:27:26.000Z</time>
      </trkpt>
      <trkpt lat="43.93713" lon="5.10771">
        <ele>197.2</ele>
        <time>2020-02-23T13:27:29.000Z</time>
      </trkpt>
    </trkseg>
  </trk>
</gpx>